<?xml version="1.0" encoding="UTF-8" standalone="no" ?>
<gpx xmlns="http://www.topografix.com/GPX/1/1" creator="MapSource 6.11.6" version="1.1" xmlns:xsi="http://www.w3.org/2001/XMLSchema-instance" xsi:schemaLocation="http://www.topografix.com/GPX/1/1 http://www.topografix.com/GPX/1/1/gpx.xsd">

  <metadata>
    <link href="http://www.garmin.com">
      <text>Garmin International</text>
    </link>
    <time>2009-07-19T14:38:50Z</time>
    <bounds maxlat="50.541228" maxlon="6.220405" minlat="50.520881" minlon="6.188992"/>
  </metadata>

  <trk>
    <name>Kalterherberg- Kulturwanderweg</name>
    <extensions>
      <gpxx:TrackExtension xmlns:gpxx="http://www.garmin.com/xmlschemas/GpxExtensions/v3" xmlns:xsi="http://www.w3.org/2001/XMLSchema-instance" xsi:schemaLocation="http://www.garmin.com/xmlschemas/GpxExtensions/v3 http://www.garmin.com/xmlschemas/GpxExtensions/v3/GpxExtensionsv3.xsd">
        <gpxx:DisplayColor>White</gpxx:DisplayColor>
      </gpxx:TrackExtension>
    </extensions>
    <trkseg>
      <trkpt lat="50.520931" lon="6.218874">
        <ele>558.200000</ele>
        <time>2009-07-19T16:37:06Z</time>
      </trkpt>
      <trkpt lat="50.520931" lon="6.218873">
        <ele>558.200000</ele>
        <time>2009-07-19T16:37:06Z</time>
      </trkpt>
      <trkpt lat="50.520931" lon="6.218864">
        <ele>554.800000</ele>
        <time>2009-07-19T16:37:06Z</time>
      </trkpt>
      <trkpt lat="50.520930" lon="6.218864">
        <ele>558.200000</ele>
        <time>2009-07-19T16:37:06Z</time>
      </trkpt>
      <trkpt lat="50.520929" lon="6.218866">
        <ele>559.100000</ele>
        <time>2009-07-19T16:37:06Z</time>
      </trkpt>
      <trkpt lat="50.520931" lon="6.218869">
        <ele>558.200000</ele>
        <time>2009-07-19T16:37:07Z</time>
      </trkpt>
      <trkpt lat="50.520922" lon="6.218893">
        <ele>558.700000</ele>
        <time>2009-07-19T16:37:09Z</time>
      </trkpt>
      <trkpt lat="50.520913" lon="6.218904">
        <ele>557.700000</ele>
        <time>2009-07-19T16:37:10Z</time>
      </trkpt>
      <trkpt lat="50.520908" lon="6.218911">
        <ele>559.100000</ele>
        <time>2009-07-19T16:37:10Z</time>
      </trkpt>
      <trkpt lat="50.520910" lon="6.218937">
        <ele>554.800000</ele>
        <time>2009-07-19T16:37:12Z</time>
      </trkpt>
      <trkpt lat="50.520910" lon="6.218940">
        <ele>559.600000</ele>
        <time>2009-07-19T16:37:12Z</time>
      </trkpt>
      <trkpt lat="50.520902" lon="6.218986">
        <ele>558.200000</ele>
        <time>2009-07-19T16:37:15Z</time>
      </trkpt>
      <trkpt lat="50.520909" lon="6.219021">
        <ele>559.600000</ele>
        <time>2009-07-19T16:37:18Z</time>
      </trkpt>
      <trkpt lat="50.520949" lon="6.219141">
        <ele>558.700000</ele>
        <time>2009-07-19T16:37:26Z</time>
      </trkpt>
      <trkpt lat="50.520976" lon="6.219149">
        <ele>560.100000</ele>
        <time>2009-07-19T16:37:29Z</time>
      </trkpt>
      <trkpt lat="50.520970" lon="6.219154">
        <ele>557.200000</ele>
        <time>2009-07-19T16:37:30Z</time>
      </trkpt>
      <trkpt lat="50.520969" lon="6.219162">
        <ele>557.200000</ele>
        <time>2009-07-19T16:37:30Z</time>
      </trkpt>
      <trkpt lat="50.520969" lon="6.219178">
        <ele>561.500000</ele>
        <time>2009-07-19T16:37:31Z</time>
      </trkpt>
      <trkpt lat="50.520970" lon="6.219193">
        <ele>559.600000</ele>
        <time>2009-07-19T16:37:32Z</time>
      </trkpt>
      <trkpt lat="50.520977" lon="6.219228">
        <ele>559.100000</ele>
        <time>2009-07-19T16:37:34Z</time>
      </trkpt>
      <trkpt lat="50.520996" lon="6.219404">
        <ele>559.600000</ele>
        <time>2009-07-19T16:37:46Z</time>
      </trkpt>
      <trkpt lat="50.521018" lon="6.219679">
        <ele>560.100000</ele>
        <time>2009-07-19T16:38:03Z</time>
      </trkpt>
      <trkpt lat="50.521031" lon="6.219983">
        <ele>562.000000</ele>
        <time>2009-07-19T16:38:23Z</time>
      </trkpt>
      <trkpt lat="50.521008" lon="6.220206">
        <ele>562.000000</ele>
        <time>2009-07-19T16:38:37Z</time>
      </trkpt>
      <trkpt lat="50.521006" lon="6.220216">
        <ele>562.000000</ele>
        <time>2009-07-19T16:38:38Z</time>
      </trkpt>
      <trkpt lat="50.520990" lon="6.220239">
        <ele>562.500000</ele>
        <time>2009-07-19T16:38:40Z</time>
      </trkpt>
      <trkpt lat="50.520958" lon="6.220257">
        <ele>564.400000</ele>
        <time>2009-07-19T16:38:44Z</time>
      </trkpt>
      <trkpt lat="50.520940" lon="6.220251">
        <ele>563.500000</ele>
        <time>2009-07-19T16:38:45Z</time>
      </trkpt>
      <trkpt lat="50.520900" lon="6.220202">
        <ele>564.400000</ele>
        <time>2009-07-19T16:38:50Z</time>
      </trkpt>
      <trkpt lat="50.520947" lon="6.220240">
        <ele>563.500000</ele>
        <time>2009-07-19T16:38:56Z</time>
      </trkpt>
      <trkpt lat="50.520914" lon="6.220378">
        <ele>563.500000</ele>
        <time>2009-07-19T16:39:05Z</time>
      </trkpt>
      <trkpt lat="50.520895" lon="6.220405">
        <ele>564.900000</ele>
        <time>2009-07-19T16:39:08Z</time>
      </trkpt>
      <trkpt lat="50.520931" lon="6.220374">
        <ele>563.500000</ele>
        <time>2009-07-19T16:39:12Z</time>
      </trkpt>
      <trkpt lat="50.521091" lon="6.220332">
        <ele>564.000000</ele>
        <time>2009-07-19T16:39:28Z</time>
      </trkpt>
      <trkpt lat="50.521149" lon="6.220366">
        <ele>563.500000</ele>
        <time>2009-07-19T16:39:34Z</time>
      </trkpt>
      <trkpt lat="50.521400" lon="6.220400">
        <ele>564.000000</ele>
        <time>2009-07-19T16:40:00Z</time>
      </trkpt>
      <trkpt lat="50.521611" lon="6.220344">
        <ele>562.000000</ele>
        <time>2009-07-19T16:40:21Z</time>
      </trkpt>
      <trkpt lat="50.521797" lon="6.220225">
        <ele>563.000000</ele>
        <time>2009-07-19T16:40:41Z</time>
      </trkpt>
      <trkpt lat="50.521957" lon="6.220116">
        <ele>564.400000</ele>
        <time>2009-07-19T16:40:58Z</time>
      </trkpt>
      <trkpt lat="50.522108" lon="6.220031">
        <ele>564.400000</ele>
        <time>2009-07-19T16:41:15Z</time>
      </trkpt>
      <trkpt lat="50.522255" lon="6.219956">
        <ele>564.000000</ele>
        <time>2009-07-19T16:41:30Z</time>
      </trkpt>
      <trkpt lat="50.522406" lon="6.219815">
        <ele>565.400000</ele>
        <time>2009-07-19T16:41:48Z</time>
      </trkpt>
      <trkpt lat="50.522641" lon="6.219712">
        <ele>564.000000</ele>
        <time>2009-07-19T16:42:12Z</time>
      </trkpt>
      <trkpt lat="50.522847" lon="6.219627">
        <ele>565.400000</ele>
        <time>2009-07-19T16:42:33Z</time>
      </trkpt>
      <trkpt lat="50.523045" lon="6.219561">
        <ele>564.900000</ele>
        <time>2009-07-19T16:42:54Z</time>
      </trkpt>
      <trkpt lat="50.523136" lon="6.219547">
        <ele>566.800000</ele>
        <time>2009-07-19T16:43:03Z</time>
      </trkpt>
      <trkpt lat="50.523175" lon="6.219567">
        <ele>564.900000</ele>
        <time>2009-07-19T16:43:07Z</time>
      </trkpt>
      <trkpt lat="50.523180" lon="6.219582">
        <ele>565.400000</ele>
        <time>2009-07-19T16:43:08Z</time>
      </trkpt>
      <trkpt lat="50.523177" lon="6.219591">
        <ele>566.800000</ele>
        <time>2009-07-19T16:43:09Z</time>
      </trkpt>
      <trkpt lat="50.523178" lon="6.219589">
        <ele>565.400000</ele>
        <time>2009-07-19T16:43:09Z</time>
      </trkpt>
      <trkpt lat="50.523206" lon="6.219602">
        <ele>563.500000</ele>
        <time>2009-07-19T16:43:12Z</time>
      </trkpt>
      <trkpt lat="50.523237" lon="6.219567">
        <ele>565.400000</ele>
        <time>2009-07-19T16:43:15Z</time>
      </trkpt>
      <trkpt lat="50.523298" lon="6.219534">
        <ele>561.500000</ele>
        <time>2009-07-19T16:43:22Z</time>
      </trkpt>
      <trkpt lat="50.523318" lon="6.219523">
        <ele>561.500000</ele>
        <time>2009-07-19T16:43:24Z</time>
      </trkpt>
      <trkpt lat="50.523351" lon="6.219509">
        <ele>564.000000</ele>
        <time>2009-07-19T16:43:27Z</time>
      </trkpt>
      <trkpt lat="50.523411" lon="6.219488">
        <ele>564.000000</ele>
        <time>2009-07-19T16:43:34Z</time>
      </trkpt>
      <trkpt lat="50.523429" lon="6.219273">
        <ele>564.000000</ele>
        <time>2009-07-19T16:43:47Z</time>
      </trkpt>
      <trkpt lat="50.523420" lon="6.219062">
        <ele>564.400000</ele>
        <time>2009-07-19T16:44:01Z</time>
      </trkpt>
      <trkpt lat="50.523392" lon="6.218771">
        <ele>560.600000</ele>
        <time>2009-07-19T16:44:20Z</time>
      </trkpt>
      <trkpt lat="50.523387" lon="6.218716">
        <ele>566.400000</ele>
        <time>2009-07-19T16:44:23Z</time>
      </trkpt>
      <trkpt lat="50.523384" lon="6.218692">
        <ele>564.000000</ele>
        <time>2009-07-19T16:44:25Z</time>
      </trkpt>
      <trkpt lat="50.523369" lon="6.218541">
        <ele>564.000000</ele>
        <time>2009-07-19T16:44:34Z</time>
      </trkpt>
      <trkpt lat="50.523367" lon="6.218270">
        <ele>562.500000</ele>
        <time>2009-07-19T16:44:52Z</time>
      </trkpt>
      <trkpt lat="50.523340" lon="6.218001">
        <ele>562.000000</ele>
        <time>2009-07-19T16:45:09Z</time>
      </trkpt>
      <trkpt lat="50.523275" lon="6.217724">
        <ele>561.500000</ele>
        <time>2009-07-19T16:45:28Z</time>
      </trkpt>
      <trkpt lat="50.523217" lon="6.217460">
        <ele>561.100000</ele>
        <time>2009-07-19T16:45:46Z</time>
      </trkpt>
      <trkpt lat="50.523141" lon="6.217158">
        <ele>560.600000</ele>
        <time>2009-07-19T16:46:06Z</time>
      </trkpt>
      <trkpt lat="50.523108" lon="6.216943">
        <ele>560.100000</ele>
        <time>2009-07-19T16:46:20Z</time>
      </trkpt>
      <trkpt lat="50.523043" lon="6.216600">
        <ele>560.100000</ele>
        <time>2009-07-19T16:46:43Z</time>
      </trkpt>
      <trkpt lat="50.522985" lon="6.216310">
        <ele>559.600000</ele>
        <time>2009-07-19T16:47:03Z</time>
      </trkpt>
      <trkpt lat="50.522996" lon="6.216315">
        <ele>559.600000</ele>
        <time>2009-07-19T16:47:04Z</time>
      </trkpt>
      <trkpt lat="50.522970" lon="6.216163">
        <ele>558.200000</ele>
        <time>2009-07-19T16:47:14Z</time>
      </trkpt>
      <trkpt lat="50.522884" lon="6.215794">
        <ele>557.200000</ele>
        <time>2009-07-19T16:47:39Z</time>
      </trkpt>
      <trkpt lat="50.522824" lon="6.215494">
        <ele>556.700000</ele>
        <time>2009-07-19T16:47:59Z</time>
      </trkpt>
      <trkpt lat="50.522755" lon="6.215136">
        <ele>554.300000</ele>
        <time>2009-07-19T16:48:23Z</time>
      </trkpt>
      <trkpt lat="50.522694" lon="6.214872">
        <ele>553.900000</ele>
        <time>2009-07-19T16:48:41Z</time>
      </trkpt>
      <trkpt lat="50.522679" lon="6.214758">
        <ele>553.900000</ele>
        <time>2009-07-19T16:48:48Z</time>
      </trkpt>
      <trkpt lat="50.522726" lon="6.214679">
        <ele>554.300000</ele>
        <time>2009-07-19T16:48:55Z</time>
      </trkpt>
      <trkpt lat="50.522898" lon="6.214631">
        <ele>554.800000</ele>
        <time>2009-07-19T16:49:12Z</time>
      </trkpt>
      <trkpt lat="50.522936" lon="6.214621">
        <ele>554.800000</ele>
        <time>2009-07-19T16:49:16Z</time>
      </trkpt>
      <trkpt lat="50.523148" lon="6.214595">
        <ele>554.800000</ele>
        <time>2009-07-19T16:49:37Z</time>
      </trkpt>
      <trkpt lat="50.523345" lon="6.214494">
        <ele>554.300000</ele>
        <time>2009-07-19T16:49:58Z</time>
      </trkpt>
      <trkpt lat="50.523465" lon="6.214487">
        <ele>554.800000</ele>
        <time>2009-07-19T16:50:10Z</time>
      </trkpt>
      <trkpt lat="50.523572" lon="6.214506">
        <ele>553.400000</ele>
        <time>2009-07-19T16:50:21Z</time>
      </trkpt>
      <trkpt lat="50.523850" lon="6.214464">
        <ele>551.000000</ele>
        <time>2009-07-19T16:50:49Z</time>
      </trkpt>
      <trkpt lat="50.524054" lon="6.214381">
        <ele>549.100000</ele>
        <time>2009-07-19T16:51:10Z</time>
      </trkpt>
      <trkpt lat="50.524182" lon="6.214432">
        <ele>548.600000</ele>
        <time>2009-07-19T16:51:23Z</time>
      </trkpt>
      <trkpt lat="50.524351" lon="6.214544">
        <ele>545.700000</ele>
        <time>2009-07-19T16:51:42Z</time>
      </trkpt>
      <trkpt lat="50.524365" lon="6.214531">
        <ele>545.200000</ele>
        <time>2009-07-19T16:51:43Z</time>
      </trkpt>
      <trkpt lat="50.524361" lon="6.214498">
        <ele>544.700000</ele>
        <time>2009-07-19T16:51:45Z</time>
      </trkpt>
      <trkpt lat="50.524287" lon="6.214298">
        <ele>543.300000</ele>
        <time>2009-07-19T16:52:00Z</time>
      </trkpt>
      <trkpt lat="50.524244" lon="6.214199">
        <ele>541.800000</ele>
        <time>2009-07-19T16:52:08Z</time>
      </trkpt>
      <trkpt lat="50.524172" lon="6.213957">
        <ele>539.400000</ele>
        <time>2009-07-19T16:52:25Z</time>
      </trkpt>
      <trkpt lat="50.524104" lon="6.213741">
        <ele>537.500000</ele>
        <time>2009-07-19T16:52:40Z</time>
      </trkpt>
      <trkpt lat="50.524094" lon="6.213629">
        <ele>536.600000</ele>
        <time>2009-07-19T16:52:47Z</time>
      </trkpt>
      <trkpt lat="50.524027" lon="6.213435">
        <ele>535.600000</ele>
        <time>2009-07-19T16:53:01Z</time>
      </trkpt>
      <trkpt lat="50.524027" lon="6.213345">
        <ele>535.100000</ele>
        <time>2009-07-19T16:53:07Z</time>
      </trkpt>
      <trkpt lat="50.523980" lon="6.213118">
        <ele>533.700000</ele>
        <time>2009-07-19T16:53:22Z</time>
      </trkpt>
      <trkpt lat="50.523868" lon="6.212886">
        <ele>531.700000</ele>
        <time>2009-07-19T16:53:41Z</time>
      </trkpt>
      <trkpt lat="50.523754" lon="6.212646">
        <ele>529.300000</ele>
        <time>2009-07-19T16:54:00Z</time>
      </trkpt>
      <trkpt lat="50.523672" lon="6.212421">
        <ele>528.400000</ele>
        <time>2009-07-19T16:54:16Z</time>
      </trkpt>
      <trkpt lat="50.523552" lon="6.212208">
        <ele>526.900000</ele>
        <time>2009-07-19T16:54:35Z</time>
      </trkpt>
      <trkpt lat="50.523406" lon="6.211972">
        <ele>525.500000</ele>
        <time>2009-07-19T16:54:56Z</time>
      </trkpt>
      <trkpt lat="50.523235" lon="6.211809">
        <ele>524.500000</ele>
        <time>2009-07-19T16:55:16Z</time>
      </trkpt>
      <trkpt lat="50.523183" lon="6.211663">
        <ele>524.100000</ele>
        <time>2009-07-19T16:55:26Z</time>
      </trkpt>
      <trkpt lat="50.523114" lon="6.211386">
        <ele>524.500000</ele>
        <time>2009-07-19T16:55:45Z</time>
      </trkpt>
      <trkpt lat="50.523106" lon="6.211311">
        <ele>523.600000</ele>
        <time>2009-07-19T16:55:50Z</time>
      </trkpt>
      <trkpt lat="50.523115" lon="6.211308">
        <ele>524.500000</ele>
        <time>2009-07-19T16:55:51Z</time>
      </trkpt>
      <trkpt lat="50.523100" lon="6.211255">
        <ele>523.100000</ele>
        <time>2009-07-19T16:55:55Z</time>
      </trkpt>
      <trkpt lat="50.523070" lon="6.211090">
        <ele>522.600000</ele>
        <time>2009-07-19T16:56:06Z</time>
      </trkpt>
      <trkpt lat="50.523069" lon="6.210996">
        <ele>522.100000</ele>
        <time>2009-07-19T16:56:12Z</time>
      </trkpt>
      <trkpt lat="50.523073" lon="6.210896">
        <ele>521.700000</ele>
        <time>2009-07-19T16:56:18Z</time>
      </trkpt>
      <trkpt lat="50.523177" lon="6.210711">
        <ele>520.700000</ele>
        <time>2009-07-19T16:56:34Z</time>
      </trkpt>
      <trkpt lat="50.523208" lon="6.210702">
        <ele>520.700000</ele>
        <time>2009-07-19T16:56:37Z</time>
      </trkpt>
      <trkpt lat="50.523372" lon="6.210608">
        <ele>519.700000</ele>
        <time>2009-07-19T16:56:54Z</time>
      </trkpt>
      <trkpt lat="50.523402" lon="6.210585">
        <ele>520.200000</ele>
        <time>2009-07-19T16:56:58Z</time>
      </trkpt>
      <trkpt lat="50.523421" lon="6.210577">
        <ele>519.700000</ele>
        <time>2009-07-19T16:57:00Z</time>
      </trkpt>
      <trkpt lat="50.523506" lon="6.210500">
        <ele>519.200000</ele>
        <time>2009-07-19T16:57:09Z</time>
      </trkpt>
      <trkpt lat="50.523649" lon="6.210454">
        <ele>519.200000</ele>
        <time>2009-07-19T16:57:24Z</time>
      </trkpt>
      <trkpt lat="50.523827" lon="6.210323">
        <ele>518.300000</ele>
        <time>2009-07-19T16:57:44Z</time>
      </trkpt>
      <trkpt lat="50.523887" lon="6.210339">
        <ele>518.800000</ele>
        <time>2009-07-19T16:57:50Z</time>
      </trkpt>
      <trkpt lat="50.523899" lon="6.210391">
        <ele>519.200000</ele>
        <time>2009-07-19T16:57:53Z</time>
      </trkpt>
      <trkpt lat="50.523897" lon="6.210393">
        <ele>518.800000</ele>
        <time>2009-07-19T16:57:54Z</time>
      </trkpt>
      <trkpt lat="50.523929" lon="6.210345">
        <ele>518.800000</ele>
        <time>2009-07-19T16:57:58Z</time>
      </trkpt>
      <trkpt lat="50.524040" lon="6.210162">
        <ele>518.300000</ele>
        <time>2009-07-19T16:58:14Z</time>
      </trkpt>
      <trkpt lat="50.524097" lon="6.210082">
        <ele>518.300000</ele>
        <time>2009-07-19T16:58:22Z</time>
      </trkpt>
      <trkpt lat="50.524260" lon="6.209823">
        <ele>517.300000</ele>
        <time>2009-07-19T16:58:45Z</time>
      </trkpt>
      <trkpt lat="50.524422" lon="6.209521">
        <ele>517.300000</ele>
        <time>2009-07-19T16:59:10Z</time>
      </trkpt>
      <trkpt lat="50.524558" lon="6.209250">
        <ele>515.400000</ele>
        <time>2009-07-19T16:59:32Z</time>
      </trkpt>
      <trkpt lat="50.524664" lon="6.209001">
        <ele>514.400000</ele>
        <time>2009-07-19T16:59:51Z</time>
      </trkpt>
      <trkpt lat="50.524699" lon="6.208720">
        <ele>514.000000</ele>
        <time>2009-07-19T17:00:09Z</time>
      </trkpt>
      <trkpt lat="50.524683" lon="6.208463">
        <ele>513.000000</ele>
        <time>2009-07-19T17:00:26Z</time>
      </trkpt>
      <trkpt lat="50.524683" lon="6.208435">
        <ele>513.000000</ele>
        <time>2009-07-19T17:00:28Z</time>
      </trkpt>
      <trkpt lat="50.524668" lon="6.208382">
        <ele>513.000000</ele>
        <time>2009-07-19T17:00:31Z</time>
      </trkpt>
      <trkpt lat="50.524687" lon="6.208182">
        <ele>512.500000</ele>
        <time>2009-07-19T17:00:44Z</time>
      </trkpt>
      <trkpt lat="50.524681" lon="6.208139">
        <ele>512.000000</ele>
        <time>2009-07-19T17:00:47Z</time>
      </trkpt>
      <trkpt lat="50.524663" lon="6.208089">
        <ele>512.000000</ele>
        <time>2009-07-19T17:00:51Z</time>
      </trkpt>
      <trkpt lat="50.524635" lon="6.207913">
        <ele>512.000000</ele>
        <time>2009-07-19T17:01:02Z</time>
      </trkpt>
      <trkpt lat="50.524619" lon="6.207877">
        <ele>511.600000</ele>
        <time>2009-07-19T17:01:05Z</time>
      </trkpt>
      <trkpt lat="50.524559" lon="6.207777">
        <ele>511.600000</ele>
        <time>2009-07-19T17:01:14Z</time>
      </trkpt>
      <trkpt lat="50.524421" lon="6.207579">
        <ele>510.600000</ele>
        <time>2009-07-19T17:01:33Z</time>
      </trkpt>
      <trkpt lat="50.524358" lon="6.207311">
        <ele>509.600000</ele>
        <time>2009-07-19T17:01:51Z</time>
      </trkpt>
      <trkpt lat="50.524333" lon="6.207148">
        <ele>509.200000</ele>
        <time>2009-07-19T17:02:01Z</time>
      </trkpt>
      <trkpt lat="50.524365" lon="6.206950">
        <ele>509.200000</ele>
        <time>2009-07-19T17:02:14Z</time>
      </trkpt>
      <trkpt lat="50.524363" lon="6.206678">
        <ele>508.200000</ele>
        <time>2009-07-19T17:02:32Z</time>
      </trkpt>
      <trkpt lat="50.524385" lon="6.206608">
        <ele>508.200000</ele>
        <time>2009-07-19T17:02:37Z</time>
      </trkpt>
      <trkpt lat="50.524406" lon="6.206534">
        <ele>508.200000</ele>
        <time>2009-07-19T17:02:42Z</time>
      </trkpt>
      <trkpt lat="50.524414" lon="6.206460">
        <ele>508.200000</ele>
        <time>2009-07-19T17:02:47Z</time>
      </trkpt>
      <trkpt lat="50.524448" lon="6.206252">
        <ele>507.700000</ele>
        <time>2009-07-19T17:03:00Z</time>
      </trkpt>
      <trkpt lat="50.524476" lon="6.206094">
        <ele>506.800000</ele>
        <time>2009-07-19T17:03:11Z</time>
      </trkpt>
      <trkpt lat="50.524546" lon="6.205912">
        <ele>507.200000</ele>
        <time>2009-07-19T17:03:24Z</time>
      </trkpt>
      <trkpt lat="50.524631" lon="6.205697">
        <ele>507.700000</ele>
        <time>2009-07-19T17:03:41Z</time>
      </trkpt>
      <trkpt lat="50.524797" lon="6.205494">
        <ele>507.200000</ele>
        <time>2009-07-19T17:04:01Z</time>
      </trkpt>
      <trkpt lat="50.524924" lon="6.205356">
        <ele>506.800000</ele>
        <time>2009-07-19T17:04:17Z</time>
      </trkpt>
      <trkpt lat="50.525078" lon="6.205150">
        <ele>506.800000</ele>
        <time>2009-07-19T17:04:37Z</time>
      </trkpt>
      <trkpt lat="50.525243" lon="6.204944">
        <ele>506.800000</ele>
        <time>2009-07-19T17:04:58Z</time>
      </trkpt>
      <trkpt lat="50.525390" lon="6.204768">
        <ele>506.800000</ele>
        <time>2009-07-19T17:05:17Z</time>
      </trkpt>
      <trkpt lat="50.525530" lon="6.204589">
        <ele>506.800000</ele>
        <time>2009-07-19T17:05:35Z</time>
      </trkpt>
      <trkpt lat="50.525665" lon="6.204436">
        <ele>506.300000</ele>
        <time>2009-07-19T17:05:52Z</time>
      </trkpt>
      <trkpt lat="50.525830" lon="6.204194">
        <ele>506.300000</ele>
        <time>2009-07-19T17:06:14Z</time>
      </trkpt>
      <trkpt lat="50.525922" lon="6.204048">
        <ele>505.800000</ele>
        <time>2009-07-19T17:06:27Z</time>
      </trkpt>
      <trkpt lat="50.526014" lon="6.203875">
        <ele>505.800000</ele>
        <time>2009-07-19T17:06:42Z</time>
      </trkpt>
      <trkpt lat="50.526101" lon="6.203677">
        <ele>506.300000</ele>
        <time>2009-07-19T17:06:57Z</time>
      </trkpt>
      <trkpt lat="50.526215" lon="6.203476">
        <ele>505.300000</ele>
        <time>2009-07-19T17:07:14Z</time>
      </trkpt>
      <trkpt lat="50.526288" lon="6.203369">
        <ele>505.800000</ele>
        <time>2009-07-19T17:07:24Z</time>
      </trkpt>
      <trkpt lat="50.526273" lon="6.203306">
        <ele>505.300000</ele>
        <time>2009-07-19T17:07:28Z</time>
      </trkpt>
      <trkpt lat="50.526269" lon="6.203271">
        <ele>505.800000</ele>
        <time>2009-07-19T17:07:31Z</time>
      </trkpt>
      <trkpt lat="50.526257" lon="6.203265">
        <ele>506.300000</ele>
        <time>2009-07-19T17:07:32Z</time>
      </trkpt>
      <trkpt lat="50.526241" lon="6.203188">
        <ele>508.700000</ele>
        <time>2009-07-19T17:07:37Z</time>
      </trkpt>
      <trkpt lat="50.526197" lon="6.203067">
        <ele>511.600000</ele>
        <time>2009-07-19T17:07:46Z</time>
      </trkpt>
      <trkpt lat="50.526317" lon="6.202785">
        <ele>511.600000</ele>
        <time>2009-07-19T17:08:08Z</time>
      </trkpt>
      <trkpt lat="50.526393" lon="6.202575">
        <ele>511.100000</ele>
        <time>2009-07-19T17:08:23Z</time>
      </trkpt>
      <trkpt lat="50.526479" lon="6.202299">
        <ele>511.600000</ele>
        <time>2009-07-19T17:08:43Z</time>
      </trkpt>
      <trkpt lat="50.526516" lon="6.202065">
        <ele>511.600000</ele>
        <time>2009-07-19T17:08:58Z</time>
      </trkpt>
      <trkpt lat="50.526572" lon="6.201812">
        <ele>511.100000</ele>
        <time>2009-07-19T17:09:15Z</time>
      </trkpt>
      <trkpt lat="50.526652" lon="6.201599">
        <ele>511.100000</ele>
        <time>2009-07-19T17:09:31Z</time>
      </trkpt>
      <trkpt lat="50.526652" lon="6.201595">
        <ele>511.100000</ele>
        <time>2009-07-19T17:09:31Z</time>
      </trkpt>
      <trkpt lat="50.526640" lon="6.201520">
        <ele>511.100000</ele>
        <time>2009-07-19T17:09:36Z</time>
      </trkpt>
      <trkpt lat="50.526656" lon="6.201442">
        <ele>510.600000</ele>
        <time>2009-07-19T17:09:41Z</time>
      </trkpt>
      <trkpt lat="50.526662" lon="6.201440">
        <ele>510.600000</ele>
        <time>2009-07-19T17:09:42Z</time>
      </trkpt>
      <trkpt lat="50.526667" lon="6.201434">
        <ele>509.600000</ele>
        <time>2009-07-19T17:09:43Z</time>
      </trkpt>
      <trkpt lat="50.526720" lon="6.201348">
        <ele>510.600000</ele>
        <time>2009-07-19T17:09:50Z</time>
      </trkpt>
      <trkpt lat="50.526722" lon="6.201172">
        <ele>510.100000</ele>
        <time>2009-07-19T17:10:01Z</time>
      </trkpt>
      <trkpt lat="50.526735" lon="6.201036">
        <ele>510.100000</ele>
        <time>2009-07-19T17:10:10Z</time>
      </trkpt>
      <trkpt lat="50.526739" lon="6.200921">
        <ele>510.600000</ele>
        <time>2009-07-19T17:10:17Z</time>
      </trkpt>
      <trkpt lat="50.526747" lon="6.200805">
        <ele>510.600000</ele>
        <time>2009-07-19T17:10:25Z</time>
      </trkpt>
      <trkpt lat="50.526777" lon="6.200653">
        <ele>510.100000</ele>
        <time>2009-07-19T17:10:35Z</time>
      </trkpt>
      <trkpt lat="50.526768" lon="6.200593">
        <ele>510.100000</ele>
        <time>2009-07-19T17:10:39Z</time>
      </trkpt>
      <trkpt lat="50.526736" lon="6.200465">
        <ele>511.100000</ele>
        <time>2009-07-19T17:10:48Z</time>
      </trkpt>
      <trkpt lat="50.526725" lon="6.200312">
        <ele>513.500000</ele>
        <time>2009-07-19T17:10:57Z</time>
      </trkpt>
      <trkpt lat="50.526760" lon="6.200132">
        <ele>514.900000</ele>
        <time>2009-07-19T17:11:09Z</time>
      </trkpt>
      <trkpt lat="50.526775" lon="6.200011">
        <ele>515.900000</ele>
        <time>2009-07-19T17:11:17Z</time>
      </trkpt>
      <trkpt lat="50.526706" lon="6.199926">
        <ele>517.800000</ele>
        <time>2009-07-19T17:11:26Z</time>
      </trkpt>
      <trkpt lat="50.526638" lon="6.199830">
        <ele>518.800000</ele>
        <time>2009-07-19T17:11:35Z</time>
      </trkpt>
      <trkpt lat="50.526563" lon="6.199761">
        <ele>520.200000</ele>
        <time>2009-07-19T17:11:44Z</time>
      </trkpt>
      <trkpt lat="50.526501" lon="6.199703">
        <ele>521.700000</ele>
        <time>2009-07-19T17:11:51Z</time>
      </trkpt>
      <trkpt lat="50.526332" lon="6.199593">
        <ele>523.600000</ele>
        <time>2009-07-19T17:12:10Z</time>
      </trkpt>
      <trkpt lat="50.526255" lon="6.199418">
        <ele>525.500000</ele>
        <time>2009-07-19T17:12:23Z</time>
      </trkpt>
      <trkpt lat="50.526254" lon="6.199199">
        <ele>527.400000</ele>
        <time>2009-07-19T17:12:37Z</time>
      </trkpt>
      <trkpt lat="50.526298" lon="6.199055">
        <ele>529.300000</ele>
        <time>2009-07-19T17:12:47Z</time>
      </trkpt>
      <trkpt lat="50.526348" lon="6.198873">
        <ele>529.800000</ele>
        <time>2009-07-19T17:13:00Z</time>
      </trkpt>
      <trkpt lat="50.526437" lon="6.198766">
        <ele>532.700000</ele>
        <time>2009-07-19T17:13:11Z</time>
      </trkpt>
      <trkpt lat="50.526538" lon="6.198675">
        <ele>533.700000</ele>
        <time>2009-07-19T17:13:23Z</time>
      </trkpt>
      <trkpt lat="50.526637" lon="6.198585">
        <ele>535.100000</ele>
        <time>2009-07-19T17:13:34Z</time>
      </trkpt>
      <trkpt lat="50.526741" lon="6.198482">
        <ele>537.000000</ele>
        <time>2009-07-19T17:13:47Z</time>
      </trkpt>
      <trkpt lat="50.526817" lon="6.198401">
        <ele>539.000000</ele>
        <time>2009-07-19T17:13:56Z</time>
      </trkpt>
      <trkpt lat="50.526884" lon="6.198290">
        <ele>540.400000</ele>
        <time>2009-07-19T17:14:05Z</time>
      </trkpt>
      <trkpt lat="50.526985" lon="6.198138">
        <ele>541.800000</ele>
        <time>2009-07-19T17:14:19Z</time>
      </trkpt>
      <trkpt lat="50.527093" lon="6.197989">
        <ele>543.300000</ele>
        <time>2009-07-19T17:14:34Z</time>
      </trkpt>
      <trkpt lat="50.527216" lon="6.197833">
        <ele>544.200000</ele>
        <time>2009-07-19T17:14:50Z</time>
      </trkpt>
      <trkpt lat="50.527299" lon="6.197702">
        <ele>545.700000</ele>
        <time>2009-07-19T17:15:01Z</time>
      </trkpt>
      <trkpt lat="50.527388" lon="6.197587">
        <ele>547.600000</ele>
        <time>2009-07-19T17:15:13Z</time>
      </trkpt>
      <trkpt lat="50.527418" lon="6.197405">
        <ele>550.000000</ele>
        <time>2009-07-19T17:15:25Z</time>
      </trkpt>
      <trkpt lat="50.527435" lon="6.197369">
        <ele>549.500000</ele>
        <time>2009-07-19T17:15:28Z</time>
      </trkpt>
      <trkpt lat="50.527474" lon="6.197326">
        <ele>549.100000</ele>
        <time>2009-07-19T17:15:33Z</time>
      </trkpt>
      <trkpt lat="50.527565" lon="6.197076">
        <ele>551.900000</ele>
        <time>2009-07-19T17:15:51Z</time>
      </trkpt>
      <trkpt lat="50.527649" lon="6.196815">
        <ele>553.400000</ele>
        <time>2009-07-19T17:16:10Z</time>
      </trkpt>
      <trkpt lat="50.527690" lon="6.196554">
        <ele>555.800000</ele>
        <time>2009-07-19T17:16:27Z</time>
      </trkpt>
      <trkpt lat="50.527740" lon="6.196285">
        <ele>556.300000</ele>
        <time>2009-07-19T17:16:44Z</time>
      </trkpt>
      <trkpt lat="50.527775" lon="6.196050">
        <ele>559.100000</ele>
        <time>2009-07-19T17:17:00Z</time>
      </trkpt>
      <trkpt lat="50.527792" lon="6.195854">
        <ele>561.100000</ele>
        <time>2009-07-19T17:17:12Z</time>
      </trkpt>
      <trkpt lat="50.527789" lon="6.195818">
        <ele>561.500000</ele>
        <time>2009-07-19T17:17:15Z</time>
      </trkpt>
      <trkpt lat="50.527780" lon="6.195748">
        <ele>560.600000</ele>
        <time>2009-07-19T17:17:19Z</time>
      </trkpt>
      <trkpt lat="50.527833" lon="6.195763">
        <ele>560.600000</ele>
        <time>2009-07-19T17:17:25Z</time>
      </trkpt>
      <trkpt lat="50.527793" lon="6.195737">
        <ele>561.500000</ele>
        <time>2009-07-19T17:17:29Z</time>
      </trkpt>
      <trkpt lat="50.527712" lon="6.195566">
        <ele>562.500000</ele>
        <time>2009-07-19T17:17:43Z</time>
      </trkpt>
      <trkpt lat="50.527663" lon="6.195487">
        <ele>562.500000</ele>
        <time>2009-07-19T17:17:50Z</time>
      </trkpt>
      <trkpt lat="50.527637" lon="6.195424">
        <ele>562.500000</ele>
        <time>2009-07-19T17:17:54Z</time>
      </trkpt>
      <trkpt lat="50.527487" lon="6.195147">
        <ele>562.500000</ele>
        <time>2009-07-19T17:18:17Z</time>
      </trkpt>
      <trkpt lat="50.527349" lon="6.194872">
        <ele>561.500000</ele>
        <time>2009-07-19T17:18:40Z</time>
      </trkpt>
      <trkpt lat="50.527211" lon="6.194557">
        <ele>561.500000</ele>
        <time>2009-07-19T17:19:04Z</time>
      </trkpt>
      <trkpt lat="50.527121" lon="6.194339">
        <ele>561.100000</ele>
        <time>2009-07-19T17:19:21Z</time>
      </trkpt>
      <trkpt lat="50.527028" lon="6.194150">
        <ele>560.600000</ele>
        <time>2009-07-19T17:19:36Z</time>
      </trkpt>
      <trkpt lat="50.526955" lon="6.193997">
        <ele>560.100000</ele>
        <time>2009-07-19T17:19:48Z</time>
      </trkpt>
      <trkpt lat="50.526917" lon="6.193905">
        <ele>560.100000</ele>
        <time>2009-07-19T17:19:55Z</time>
      </trkpt>
      <trkpt lat="50.526919" lon="6.193727">
        <ele>560.100000</ele>
        <time>2009-07-19T17:20:06Z</time>
      </trkpt>
      <trkpt lat="50.526864" lon="6.193692">
        <ele>560.600000</ele>
        <time>2009-07-19T17:20:12Z</time>
      </trkpt>
      <trkpt lat="50.526846" lon="6.193674">
        <ele>560.600000</ele>
        <time>2009-07-19T17:20:14Z</time>
      </trkpt>
      <trkpt lat="50.526802" lon="6.193607">
        <ele>561.100000</ele>
        <time>2009-07-19T17:20:21Z</time>
      </trkpt>
      <trkpt lat="50.526835" lon="6.193558">
        <ele>561.100000</ele>
        <time>2009-07-19T17:20:25Z</time>
      </trkpt>
      <trkpt lat="50.527059" lon="6.193596">
        <ele>561.500000</ele>
        <time>2009-07-19T17:20:48Z</time>
      </trkpt>
      <trkpt lat="50.527238" lon="6.193625">
        <ele>564.000000</ele>
        <time>2009-07-19T17:21:06Z</time>
      </trkpt>
      <trkpt lat="50.527465" lon="6.193645">
        <ele>567.300000</ele>
        <time>2009-07-19T17:21:29Z</time>
      </trkpt>
      <trkpt lat="50.527658" lon="6.193569">
        <ele>568.800000</ele>
        <time>2009-07-19T17:21:48Z</time>
      </trkpt>
      <trkpt lat="50.527929" lon="6.193420">
        <ele>570.200000</ele>
        <time>2009-07-19T17:22:17Z</time>
      </trkpt>
      <trkpt lat="50.528169" lon="6.193358">
        <ele>572.600000</ele>
        <time>2009-07-19T17:22:42Z</time>
      </trkpt>
      <trkpt lat="50.528408" lon="6.193364">
        <ele>573.600000</ele>
        <time>2009-07-19T17:23:05Z</time>
      </trkpt>
      <trkpt lat="50.528661" lon="6.193352">
        <ele>573.600000</ele>
        <time>2009-07-19T17:23:31Z</time>
      </trkpt>
      <trkpt lat="50.528922" lon="6.193337">
        <ele>574.000000</ele>
        <time>2009-07-19T17:23:57Z</time>
      </trkpt>
      <trkpt lat="50.529159" lon="6.193318">
        <ele>574.500000</ele>
        <time>2009-07-19T17:24:21Z</time>
      </trkpt>
      <trkpt lat="50.529399" lon="6.193294">
        <ele>573.100000</ele>
        <time>2009-07-19T17:24:45Z</time>
      </trkpt>
      <trkpt lat="50.529527" lon="6.193240">
        <ele>571.200000</ele>
        <time>2009-07-19T17:24:58Z</time>
      </trkpt>
      <trkpt lat="50.529635" lon="6.193190">
        <ele>571.600000</ele>
        <time>2009-07-19T17:25:10Z</time>
      </trkpt>
      <trkpt lat="50.529874" lon="6.193083">
        <ele>570.200000</ele>
        <time>2009-07-19T17:25:34Z</time>
      </trkpt>
      <trkpt lat="50.530144" lon="6.192949">
        <ele>568.300000</ele>
        <time>2009-07-19T17:26:03Z</time>
      </trkpt>
      <trkpt lat="50.530371" lon="6.192848">
        <ele>567.800000</ele>
        <time>2009-07-19T17:26:26Z</time>
      </trkpt>
      <trkpt lat="50.530633" lon="6.192707">
        <ele>566.800000</ele>
        <time>2009-07-19T17:26:54Z</time>
      </trkpt>
      <trkpt lat="50.530801" lon="6.192568">
        <ele>567.800000</ele>
        <time>2009-07-19T17:27:13Z</time>
      </trkpt>
      <trkpt lat="50.530883" lon="6.192268">
        <ele>568.300000</ele>
        <time>2009-07-19T17:27:34Z</time>
      </trkpt>
      <trkpt lat="50.530896" lon="6.192198">
        <ele>568.800000</ele>
        <time>2009-07-19T17:27:39Z</time>
      </trkpt>
      <trkpt lat="50.530865" lon="6.192128">
        <ele>569.200000</ele>
        <time>2009-07-19T17:27:44Z</time>
      </trkpt>
      <trkpt lat="50.530668" lon="6.191867">
        <ele>571.200000</ele>
        <time>2009-07-19T17:28:10Z</time>
      </trkpt>
      <trkpt lat="50.530485" lon="6.191626">
        <ele>574.000000</ele>
        <time>2009-07-19T17:28:34Z</time>
      </trkpt>
      <trkpt lat="50.530348" lon="6.191457">
        <ele>574.500000</ele>
        <time>2009-07-19T17:28:51Z</time>
      </trkpt>
      <trkpt lat="50.530250" lon="6.191283">
        <ele>575.000000</ele>
        <time>2009-07-19T17:29:06Z</time>
      </trkpt>
      <trkpt lat="50.530379" lon="6.191098">
        <ele>575.000000</ele>
        <time>2009-07-19T17:29:24Z</time>
      </trkpt>
      <trkpt lat="50.530513" lon="6.190959">
        <ele>575.000000</ele>
        <time>2009-07-19T17:29:40Z</time>
      </trkpt>
      <trkpt lat="50.530703" lon="6.190765">
        <ele>575.500000</ele>
        <time>2009-07-19T17:30:02Z</time>
      </trkpt>
      <trkpt lat="50.530897" lon="6.190580">
        <ele>576.000000</ele>
        <time>2009-07-19T17:30:25Z</time>
      </trkpt>
      <trkpt lat="50.531065" lon="6.190380">
        <ele>576.900000</ele>
        <time>2009-07-19T17:30:46Z</time>
      </trkpt>
      <trkpt lat="50.531227" lon="6.190211">
        <ele>576.900000</ele>
        <time>2009-07-19T17:31:06Z</time>
      </trkpt>
      <trkpt lat="50.531424" lon="6.189999">
        <ele>577.900000</ele>
        <time>2009-07-19T17:31:29Z</time>
      </trkpt>
      <trkpt lat="50.531628" lon="6.189830">
        <ele>578.900000</ele>
        <time>2009-07-19T17:31:53Z</time>
      </trkpt>
      <trkpt lat="50.531742" lon="6.189751">
        <ele>578.900000</ele>
        <time>2009-07-19T17:32:05Z</time>
      </trkpt>
      <trkpt lat="50.531902" lon="6.189630">
        <ele>579.800000</ele>
        <time>2009-07-19T17:32:23Z</time>
      </trkpt>
      <trkpt lat="50.532095" lon="6.189525">
        <ele>581.300000</ele>
        <time>2009-07-19T17:32:43Z</time>
      </trkpt>
      <trkpt lat="50.532228" lon="6.189459">
        <ele>581.300000</ele>
        <time>2009-07-19T17:32:57Z</time>
      </trkpt>
      <trkpt lat="50.532360" lon="6.189390">
        <ele>581.300000</ele>
        <time>2009-07-19T17:33:11Z</time>
      </trkpt>
      <trkpt lat="50.532460" lon="6.189350">
        <ele>581.300000</ele>
        <time>2009-07-19T17:33:22Z</time>
      </trkpt>
      <trkpt lat="50.532501" lon="6.189343">
        <ele>581.300000</ele>
        <time>2009-07-19T17:33:26Z</time>
      </trkpt>
      <trkpt lat="50.532587" lon="6.189265">
        <ele>581.700000</ele>
        <time>2009-07-19T17:33:36Z</time>
      </trkpt>
      <trkpt lat="50.532712" lon="6.189209">
        <ele>581.300000</ele>
        <time>2009-07-19T17:33:49Z</time>
      </trkpt>
      <trkpt lat="50.532894" lon="6.189067">
        <ele>581.300000</ele>
        <time>2009-07-19T17:34:09Z</time>
      </trkpt>
      <trkpt lat="50.533108" lon="6.189050">
        <ele>580.800000</ele>
        <time>2009-07-19T17:34:30Z</time>
      </trkpt>
      <trkpt lat="50.533340" lon="6.189075">
        <ele>579.300000</ele>
        <time>2009-07-19T17:34:54Z</time>
      </trkpt>
      <trkpt lat="50.533559" lon="6.189028">
        <ele>578.900000</ele>
        <time>2009-07-19T17:35:16Z</time>
      </trkpt>
      <trkpt lat="50.533786" lon="6.188992">
        <ele>578.400000</ele>
        <time>2009-07-19T17:35:39Z</time>
      </trkpt>
      <trkpt lat="50.533972" lon="6.189142">
        <ele>577.900000</ele>
        <time>2009-07-19T17:36:00Z</time>
      </trkpt>
      <trkpt lat="50.534100" lon="6.189241">
        <ele>576.900000</ele>
        <time>2009-07-19T17:36:14Z</time>
      </trkpt>
      <trkpt lat="50.534200" lon="6.189268">
        <ele>576.400000</ele>
        <time>2009-07-19T17:36:24Z</time>
      </trkpt>
      <trkpt lat="50.534217" lon="6.189277">
        <ele>576.400000</ele>
        <time>2009-07-19T17:36:26Z</time>
      </trkpt>
      <trkpt lat="50.534362" lon="6.189323">
        <ele>576.000000</ele>
        <time>2009-07-19T17:36:41Z</time>
      </trkpt>
      <trkpt lat="50.534428" lon="6.189357">
        <ele>576.000000</ele>
        <time>2009-07-19T17:36:48Z</time>
      </trkpt>
      <trkpt lat="50.534591" lon="6.189450">
        <ele>576.400000</ele>
        <time>2009-07-19T17:37:05Z</time>
      </trkpt>
      <trkpt lat="50.534753" lon="6.189527">
        <ele>576.400000</ele>
        <time>2009-07-19T17:37:22Z</time>
      </trkpt>
      <trkpt lat="50.534908" lon="6.189620">
        <ele>576.400000</ele>
        <time>2009-07-19T17:37:39Z</time>
      </trkpt>
      <trkpt lat="50.535038" lon="6.189714">
        <ele>576.400000</ele>
        <time>2009-07-19T17:37:53Z</time>
      </trkpt>
      <trkpt lat="50.535206" lon="6.189863">
        <ele>576.900000</ele>
        <time>2009-07-19T17:38:12Z</time>
      </trkpt>
      <trkpt lat="50.535334" lon="6.189979">
        <ele>576.900000</ele>
        <time>2009-07-19T17:38:27Z</time>
      </trkpt>
      <trkpt lat="50.535487" lon="6.190126">
        <ele>576.400000</ele>
        <time>2009-07-19T17:38:45Z</time>
      </trkpt>
      <trkpt lat="50.535632" lon="6.190239">
        <ele>577.400000</ele>
        <time>2009-07-19T17:39:01Z</time>
      </trkpt>
      <trkpt lat="50.535741" lon="6.190326">
        <ele>576.900000</ele>
        <time>2009-07-19T17:39:13Z</time>
      </trkpt>
      <trkpt lat="50.535812" lon="6.190360">
        <ele>577.400000</ele>
        <time>2009-07-19T17:39:21Z</time>
      </trkpt>
      <trkpt lat="50.535928" lon="6.190474">
        <ele>576.400000</ele>
        <time>2009-07-19T17:39:35Z</time>
      </trkpt>
      <trkpt lat="50.535996" lon="6.190537">
        <ele>576.000000</ele>
        <time>2009-07-19T17:39:42Z</time>
      </trkpt>
      <trkpt lat="50.536075" lon="6.190590">
        <ele>575.500000</ele>
        <time>2009-07-19T17:39:51Z</time>
      </trkpt>
      <trkpt lat="50.536096" lon="6.190621">
        <ele>575.000000</ele>
        <time>2009-07-19T17:39:54Z</time>
      </trkpt>
      <trkpt lat="50.536146" lon="6.190768">
        <ele>576.000000</ele>
        <time>2009-07-19T17:40:05Z</time>
      </trkpt>
      <trkpt lat="50.536152" lon="6.190863">
        <ele>575.000000</ele>
        <time>2009-07-19T17:40:11Z</time>
      </trkpt>
      <trkpt lat="50.536157" lon="6.190959">
        <ele>575.500000</ele>
        <time>2009-07-19T17:40:17Z</time>
      </trkpt>
      <trkpt lat="50.536139" lon="6.191204">
        <ele>574.500000</ele>
        <time>2009-07-19T17:40:32Z</time>
      </trkpt>
      <trkpt lat="50.536133" lon="6.191220">
        <ele>575.000000</ele>
        <time>2009-07-19T17:40:34Z</time>
      </trkpt>
      <trkpt lat="50.536064" lon="6.191430">
        <ele>574.000000</ele>
        <time>2009-07-19T17:40:49Z</time>
      </trkpt>
      <trkpt lat="50.536046" lon="6.191474">
        <ele>573.600000</ele>
        <time>2009-07-19T17:40:52Z</time>
      </trkpt>
      <trkpt lat="50.535959" lon="6.191610">
        <ele>573.100000</ele>
        <time>2009-07-19T17:41:04Z</time>
      </trkpt>
      <trkpt lat="50.535887" lon="6.191677">
        <ele>573.100000</ele>
        <time>2009-07-19T17:41:13Z</time>
      </trkpt>
      <trkpt lat="50.535789" lon="6.191801">
        <ele>573.100000</ele>
        <time>2009-07-19T17:41:25Z</time>
      </trkpt>
      <trkpt lat="50.535752" lon="6.191833">
        <ele>572.600000</ele>
        <time>2009-07-19T17:41:30Z</time>
      </trkpt>
      <trkpt lat="50.535745" lon="6.191694">
        <ele>572.600000</ele>
        <time>2009-07-19T17:41:38Z</time>
      </trkpt>
      <trkpt lat="50.535793" lon="6.191700">
        <ele>572.600000</ele>
        <time>2009-07-19T17:41:43Z</time>
      </trkpt>
      <trkpt lat="50.535809" lon="6.191823">
        <ele>572.100000</ele>
        <time>2009-07-19T17:41:51Z</time>
      </trkpt>
      <trkpt lat="50.535802" lon="6.192003">
        <ele>571.200000</ele>
        <time>2009-07-19T17:42:03Z</time>
      </trkpt>
      <trkpt lat="50.535765" lon="6.192208">
        <ele>569.700000</ele>
        <time>2009-07-19T17:42:16Z</time>
      </trkpt>
      <trkpt lat="50.535727" lon="6.192402">
        <ele>568.800000</ele>
        <time>2009-07-19T17:42:29Z</time>
      </trkpt>
      <trkpt lat="50.535655" lon="6.192586">
        <ele>566.800000</ele>
        <time>2009-07-19T17:42:43Z</time>
      </trkpt>
      <trkpt lat="50.535588" lon="6.192733">
        <ele>564.900000</ele>
        <time>2009-07-19T17:42:54Z</time>
      </trkpt>
      <trkpt lat="50.535547" lon="6.192797">
        <ele>564.400000</ele>
        <time>2009-07-19T17:43:00Z</time>
      </trkpt>
      <trkpt lat="50.535480" lon="6.192976">
        <ele>563.000000</ele>
        <time>2009-07-19T17:43:13Z</time>
      </trkpt>
      <trkpt lat="50.535451" lon="6.193097">
        <ele>562.000000</ele>
        <time>2009-07-19T17:43:22Z</time>
      </trkpt>
      <trkpt lat="50.535371" lon="6.193213">
        <ele>561.100000</ele>
        <time>2009-07-19T17:43:33Z</time>
      </trkpt>
      <trkpt lat="50.535298" lon="6.193333">
        <ele>559.600000</ele>
        <time>2009-07-19T17:43:43Z</time>
      </trkpt>
      <trkpt lat="50.535223" lon="6.193516">
        <ele>557.700000</ele>
        <time>2009-07-19T17:43:57Z</time>
      </trkpt>
      <trkpt lat="50.535153" lon="6.193646">
        <ele>555.800000</ele>
        <time>2009-07-19T17:44:08Z</time>
      </trkpt>
      <trkpt lat="50.535131" lon="6.193697">
        <ele>554.300000</ele>
        <time>2009-07-19T17:44:12Z</time>
      </trkpt>
      <trkpt lat="50.535127" lon="6.193746">
        <ele>553.900000</ele>
        <time>2009-07-19T17:44:15Z</time>
      </trkpt>
      <trkpt lat="50.535120" lon="6.193872">
        <ele>552.900000</ele>
        <time>2009-07-19T17:44:23Z</time>
      </trkpt>
      <trkpt lat="50.535091" lon="6.194068">
        <ele>551.000000</ele>
        <time>2009-07-19T17:44:36Z</time>
      </trkpt>
      <trkpt lat="50.535024" lon="6.194324">
        <ele>549.100000</ele>
        <time>2009-07-19T17:44:53Z</time>
      </trkpt>
      <trkpt lat="50.534984" lon="6.194513">
        <ele>547.600000</ele>
        <time>2009-07-19T17:45:06Z</time>
      </trkpt>
      <trkpt lat="50.534891" lon="6.194736">
        <ele>545.200000</ele>
        <time>2009-07-19T17:45:23Z</time>
      </trkpt>
      <trkpt lat="50.534815" lon="6.194899">
        <ele>542.800000</ele>
        <time>2009-07-19T17:45:36Z</time>
      </trkpt>
      <trkpt lat="50.534756" lon="6.195202">
        <ele>541.400000</ele>
        <time>2009-07-19T17:45:56Z</time>
      </trkpt>
      <trkpt lat="50.534800" lon="6.195409">
        <ele>539.400000</ele>
        <time>2009-07-19T17:46:10Z</time>
      </trkpt>
      <trkpt lat="50.534828" lon="6.195604">
        <ele>538.000000</ele>
        <time>2009-07-19T17:46:23Z</time>
      </trkpt>
      <trkpt lat="50.534830" lon="6.195806">
        <ele>535.100000</ele>
        <time>2009-07-19T17:46:36Z</time>
      </trkpt>
      <trkpt lat="50.534830" lon="6.195852">
        <ele>534.600000</ele>
        <time>2009-07-19T17:46:39Z</time>
      </trkpt>
      <trkpt lat="50.534831" lon="6.196115">
        <ele>532.700000</ele>
        <time>2009-07-19T17:46:55Z</time>
      </trkpt>
      <trkpt lat="50.534856" lon="6.196240">
        <ele>531.300000</ele>
        <time>2009-07-19T17:47:04Z</time>
      </trkpt>
      <trkpt lat="50.534947" lon="6.196351">
        <ele>530.800000</ele>
        <time>2009-07-19T17:47:15Z</time>
      </trkpt>
      <trkpt lat="50.534971" lon="6.196371">
        <ele>530.300000</ele>
        <time>2009-07-19T17:47:18Z</time>
      </trkpt>
      <trkpt lat="50.535076" lon="6.196449">
        <ele>528.900000</ele>
        <time>2009-07-19T17:47:30Z</time>
      </trkpt>
      <trkpt lat="50.535148" lon="6.196481">
        <ele>527.400000</ele>
        <time>2009-07-19T17:47:37Z</time>
      </trkpt>
      <trkpt lat="50.535281" lon="6.196589">
        <ele>527.400000</ele>
        <time>2009-07-19T17:47:52Z</time>
      </trkpt>
      <trkpt lat="50.535421" lon="6.196651">
        <ele>526.900000</ele>
        <time>2009-07-19T17:48:07Z</time>
      </trkpt>
      <trkpt lat="50.535548" lon="6.196733">
        <ele>526.900000</ele>
        <time>2009-07-19T17:48:20Z</time>
      </trkpt>
      <trkpt lat="50.535647" lon="6.196804">
        <ele>526.900000</ele>
        <time>2009-07-19T17:48:31Z</time>
      </trkpt>
      <trkpt lat="50.535736" lon="6.196887">
        <ele>526.500000</ele>
        <time>2009-07-19T17:48:42Z</time>
      </trkpt>
      <trkpt lat="50.535911" lon="6.197055">
        <ele>525.000000</ele>
        <time>2009-07-19T17:49:02Z</time>
      </trkpt>
      <trkpt lat="50.536031" lon="6.197166">
        <ele>523.100000</ele>
        <time>2009-07-19T17:49:16Z</time>
      </trkpt>
      <trkpt lat="50.536142" lon="6.197271">
        <ele>522.600000</ele>
        <time>2009-07-19T17:49:29Z</time>
      </trkpt>
      <trkpt lat="50.536237" lon="6.197390">
        <ele>522.100000</ele>
        <time>2009-07-19T17:49:41Z</time>
      </trkpt>
      <trkpt lat="50.536334" lon="6.197566">
        <ele>521.200000</ele>
        <time>2009-07-19T17:49:56Z</time>
      </trkpt>
      <trkpt lat="50.536484" lon="6.197789">
        <ele>520.200000</ele>
        <time>2009-07-19T17:50:17Z</time>
      </trkpt>
      <trkpt lat="50.536493" lon="6.197799">
        <ele>520.200000</ele>
        <time>2009-07-19T17:50:18Z</time>
      </trkpt>
      <trkpt lat="50.536616" lon="6.197927">
        <ele>519.200000</ele>
        <time>2009-07-19T17:50:33Z</time>
      </trkpt>
      <trkpt lat="50.536779" lon="6.198123">
        <ele>517.300000</ele>
        <time>2009-07-19T17:50:53Z</time>
      </trkpt>
      <trkpt lat="50.536863" lon="6.198216">
        <ele>515.900000</ele>
        <time>2009-07-19T17:51:04Z</time>
      </trkpt>
      <trkpt lat="50.536873" lon="6.198226">
        <ele>515.900000</ele>
        <time>2009-07-19T17:51:05Z</time>
      </trkpt>
      <trkpt lat="50.537008" lon="6.198257">
        <ele>514.400000</ele>
        <time>2009-07-19T17:51:18Z</time>
      </trkpt>
      <trkpt lat="50.537114" lon="6.198256">
        <ele>514.000000</ele>
        <time>2009-07-19T17:51:29Z</time>
      </trkpt>
      <trkpt lat="50.537163" lon="6.198252">
        <ele>513.500000</ele>
        <time>2009-07-19T17:51:34Z</time>
      </trkpt>
      <trkpt lat="50.537334" lon="6.198270">
        <ele>513.000000</ele>
        <time>2009-07-19T17:51:51Z</time>
      </trkpt>
      <trkpt lat="50.537424" lon="6.198280">
        <ele>511.100000</ele>
        <time>2009-07-19T17:52:00Z</time>
      </trkpt>
      <trkpt lat="50.537552" lon="6.198256">
        <ele>509.600000</ele>
        <time>2009-07-19T17:52:13Z</time>
      </trkpt>
      <trkpt lat="50.537678" lon="6.198248">
        <ele>509.600000</ele>
        <time>2009-07-19T17:52:26Z</time>
      </trkpt>
      <trkpt lat="50.537704" lon="6.198261">
        <ele>509.200000</ele>
        <time>2009-07-19T17:52:28Z</time>
      </trkpt>
      <trkpt lat="50.537892" lon="6.198397">
        <ele>508.700000</ele>
        <time>2009-07-19T17:52:49Z</time>
      </trkpt>
      <trkpt lat="50.538022" lon="6.198575">
        <ele>507.700000</ele>
        <time>2009-07-19T17:53:06Z</time>
      </trkpt>
      <trkpt lat="50.538192" lon="6.198767">
        <ele>506.300000</ele>
        <time>2009-07-19T17:53:27Z</time>
      </trkpt>
      <trkpt lat="50.538380" lon="6.198860">
        <ele>504.800000</ele>
        <time>2009-07-19T17:53:47Z</time>
      </trkpt>
      <trkpt lat="50.538451" lon="6.198818">
        <ele>503.900000</ele>
        <time>2009-07-19T17:53:55Z</time>
      </trkpt>
      <trkpt lat="50.538611" lon="6.198678">
        <ele>503.400000</ele>
        <time>2009-07-19T17:54:13Z</time>
      </trkpt>
      <trkpt lat="50.538716" lon="6.198542">
        <ele>502.400000</ele>
        <time>2009-07-19T17:54:27Z</time>
      </trkpt>
      <trkpt lat="50.538778" lon="6.198428">
        <ele>502.900000</ele>
        <time>2009-07-19T17:54:36Z</time>
      </trkpt>
      <trkpt lat="50.538924" lon="6.198317">
        <ele>501.000000</ele>
        <time>2009-07-19T17:54:52Z</time>
      </trkpt>
      <trkpt lat="50.539045" lon="6.198258">
        <ele>500.000000</ele>
        <time>2009-07-19T17:55:05Z</time>
      </trkpt>
      <trkpt lat="50.539139" lon="6.198211">
        <ele>500.500000</ele>
        <time>2009-07-19T17:55:15Z</time>
      </trkpt>
      <trkpt lat="50.539172" lon="6.198242">
        <ele>500.500000</ele>
        <time>2009-07-19T17:55:19Z</time>
      </trkpt>
      <trkpt lat="50.539268" lon="6.198478">
        <ele>499.500000</ele>
        <time>2009-07-19T17:55:37Z</time>
      </trkpt>
      <trkpt lat="50.539399" lon="6.198877">
        <ele>500.000000</ele>
        <time>2009-07-19T17:56:05Z</time>
      </trkpt>
      <trkpt lat="50.539492" lon="6.199171">
        <ele>500.000000</ele>
        <time>2009-07-19T17:56:26Z</time>
      </trkpt>
      <trkpt lat="50.539542" lon="6.199394">
        <ele>500.000000</ele>
        <time>2009-07-19T17:56:41Z</time>
      </trkpt>
      <trkpt lat="50.539609" lon="6.199546">
        <ele>501.900000</ele>
        <time>2009-07-19T17:56:53Z</time>
      </trkpt>
      <trkpt lat="50.539677" lon="6.199786">
        <ele>503.400000</ele>
        <time>2009-07-19T17:57:10Z</time>
      </trkpt>
      <trkpt lat="50.539741" lon="6.200007">
        <ele>503.900000</ele>
        <time>2009-07-19T17:57:25Z</time>
      </trkpt>
      <trkpt lat="50.539800" lon="6.200237">
        <ele>505.300000</ele>
        <time>2009-07-19T17:57:41Z</time>
      </trkpt>
      <trkpt lat="50.539812" lon="6.200513">
        <ele>505.800000</ele>
        <time>2009-07-19T17:57:59Z</time>
      </trkpt>
      <trkpt lat="50.539712" lon="6.200782">
        <ele>506.800000</ele>
        <time>2009-07-19T17:58:19Z</time>
      </trkpt>
      <trkpt lat="50.539677" lon="6.200828">
        <ele>507.700000</ele>
        <time>2009-07-19T17:58:23Z</time>
      </trkpt>
      <trkpt lat="50.539485" lon="6.200893">
        <ele>508.200000</ele>
        <time>2009-07-19T17:58:43Z</time>
      </trkpt>
      <trkpt lat="50.539301" lon="6.201049">
        <ele>509.200000</ele>
        <time>2009-07-19T17:59:04Z</time>
      </trkpt>
      <trkpt lat="50.539316" lon="6.201215">
        <ele>509.200000</ele>
        <time>2009-07-19T17:59:14Z</time>
      </trkpt>
      <trkpt lat="50.539296" lon="6.201156">
        <ele>509.600000</ele>
        <time>2009-07-19T17:59:19Z</time>
      </trkpt>
      <trkpt lat="50.539217" lon="6.201207">
        <ele>509.600000</ele>
        <time>2009-07-19T17:59:27Z</time>
      </trkpt>
      <trkpt lat="50.539277" lon="6.201146">
        <ele>509.600000</ele>
        <time>2009-07-19T17:59:34Z</time>
      </trkpt>
      <trkpt lat="50.539264" lon="6.201130">
        <ele>509.200000</ele>
        <time>2009-07-19T17:59:36Z</time>
      </trkpt>
      <trkpt lat="50.539322" lon="6.200938">
        <ele>508.200000</ele>
        <time>2009-07-19T17:59:50Z</time>
      </trkpt>
      <trkpt lat="50.539463" lon="6.200830">
        <ele>507.700000</ele>
        <time>2009-07-19T18:00:05Z</time>
      </trkpt>
      <trkpt lat="50.539554" lon="6.200807">
        <ele>507.200000</ele>
        <time>2009-07-19T18:00:15Z</time>
      </trkpt>
      <trkpt lat="50.539629" lon="6.200827">
        <ele>507.200000</ele>
        <time>2009-07-19T18:00:22Z</time>
      </trkpt>
      <trkpt lat="50.539757" lon="6.200553">
        <ele>506.300000</ele>
        <time>2009-07-19T18:00:44Z</time>
      </trkpt>
      <trkpt lat="50.539743" lon="6.200354">
        <ele>505.300000</ele>
        <time>2009-07-19T18:00:57Z</time>
      </trkpt>
      <trkpt lat="50.539737" lon="6.200298">
        <ele>504.800000</ele>
        <time>2009-07-19T18:01:00Z</time>
      </trkpt>
      <trkpt lat="50.539735" lon="6.200258">
        <ele>504.800000</ele>
        <time>2009-07-19T18:01:03Z</time>
      </trkpt>
      <trkpt lat="50.539708" lon="6.200233">
        <ele>503.900000</ele>
        <time>2009-07-19T18:01:06Z</time>
      </trkpt>
      <trkpt lat="50.539725" lon="6.200256">
        <ele>503.900000</ele>
        <time>2009-07-19T18:01:08Z</time>
      </trkpt>
      <trkpt lat="50.539684" lon="6.200064">
        <ele>503.400000</ele>
        <time>2009-07-19T18:01:21Z</time>
      </trkpt>
      <trkpt lat="50.539640" lon="6.199996">
        <ele>502.900000</ele>
        <time>2009-07-19T18:01:27Z</time>
      </trkpt>
      <trkpt lat="50.539563" lon="6.199857">
        <ele>501.900000</ele>
        <time>2009-07-19T18:01:39Z</time>
      </trkpt>
      <trkpt lat="50.539484" lon="6.199613">
        <ele>501.500000</ele>
        <time>2009-07-19T18:01:56Z</time>
      </trkpt>
      <trkpt lat="50.539471" lon="6.199576">
        <ele>501.000000</ele>
        <time>2009-07-19T18:01:59Z</time>
      </trkpt>
      <trkpt lat="50.539548" lon="6.199485">
        <ele>500.000000</ele>
        <time>2009-07-19T18:02:09Z</time>
      </trkpt>
      <trkpt lat="50.539567" lon="6.199466">
        <ele>499.500000</ele>
        <time>2009-07-19T18:02:11Z</time>
      </trkpt>
      <trkpt lat="50.539591" lon="6.199475">
        <ele>499.500000</ele>
        <time>2009-07-19T18:02:13Z</time>
      </trkpt>
      <trkpt lat="50.539709" lon="6.199626">
        <ele>495.700000</ele>
        <time>2009-07-19T18:02:29Z</time>
      </trkpt>
      <trkpt lat="50.539752" lon="6.199680">
        <ele>493.800000</ele>
        <time>2009-07-19T18:02:34Z</time>
      </trkpt>
      <trkpt lat="50.539903" lon="6.199875">
        <ele>491.400000</ele>
        <time>2009-07-19T18:02:54Z</time>
      </trkpt>
      <trkpt lat="50.539970" lon="6.199975">
        <ele>490.400000</ele>
        <time>2009-07-19T18:03:03Z</time>
      </trkpt>
      <trkpt lat="50.540043" lon="6.200159">
        <ele>489.400000</ele>
        <time>2009-07-19T18:03:17Z</time>
      </trkpt>
      <trkpt lat="50.540154" lon="6.200386">
        <ele>489.000000</ele>
        <time>2009-07-19T18:03:35Z</time>
      </trkpt>
      <trkpt lat="50.540273" lon="6.200654">
        <ele>488.000000</ele>
        <time>2009-07-19T18:03:56Z</time>
      </trkpt>
      <trkpt lat="50.540385" lon="6.200945">
        <ele>487.000000</ele>
        <time>2009-07-19T18:04:17Z</time>
      </trkpt>
      <trkpt lat="50.540429" lon="6.201166">
        <ele>485.100000</ele>
        <time>2009-07-19T18:04:32Z</time>
      </trkpt>
      <trkpt lat="50.540459" lon="6.201161">
        <ele>484.600000</ele>
        <time>2009-07-19T18:04:35Z</time>
      </trkpt>
      <trkpt lat="50.540348" lon="6.201199">
        <ele>485.100000</ele>
        <time>2009-07-19T18:04:46Z</time>
      </trkpt>
      <trkpt lat="50.540337" lon="6.201210">
        <ele>485.600000</ele>
        <time>2009-07-19T18:04:48Z</time>
      </trkpt>
      <trkpt lat="50.540330" lon="6.201174">
        <ele>486.600000</ele>
        <time>2009-07-19T18:04:50Z</time>
      </trkpt>
      <trkpt lat="50.540392" lon="6.201187">
        <ele>486.600000</ele>
        <time>2009-07-19T18:04:56Z</time>
      </trkpt>
      <trkpt lat="50.540469" lon="6.201289">
        <ele>487.000000</ele>
        <time>2009-07-19T18:05:06Z</time>
      </trkpt>
      <trkpt lat="50.540485" lon="6.201315">
        <ele>487.000000</ele>
        <time>2009-07-19T18:05:09Z</time>
      </trkpt>
      <trkpt lat="50.540508" lon="6.201387">
        <ele>487.000000</ele>
        <time>2009-07-19T18:05:14Z</time>
      </trkpt>
      <trkpt lat="50.540535" lon="6.201540">
        <ele>485.600000</ele>
        <time>2009-07-19T18:05:24Z</time>
      </trkpt>
      <trkpt lat="50.540576" lon="6.201696">
        <ele>485.600000</ele>
        <time>2009-07-19T18:05:35Z</time>
      </trkpt>
      <trkpt lat="50.540553" lon="6.201669">
        <ele>485.600000</ele>
        <time>2009-07-19T18:05:38Z</time>
      </trkpt>
      <trkpt lat="50.540566" lon="6.201652">
        <ele>485.100000</ele>
        <time>2009-07-19T18:05:39Z</time>
      </trkpt>
      <trkpt lat="50.540615" lon="6.201653">
        <ele>485.100000</ele>
        <time>2009-07-19T18:05:44Z</time>
      </trkpt>
      <trkpt lat="50.540655" lon="6.201629">
        <ele>485.100000</ele>
        <time>2009-07-19T18:05:48Z</time>
      </trkpt>
      <trkpt lat="50.540785" lon="6.201607">
        <ele>485.100000</ele>
        <time>2009-07-19T18:06:02Z</time>
      </trkpt>
      <trkpt lat="50.540820" lon="6.201625">
        <ele>484.600000</ele>
        <time>2009-07-19T18:06:05Z</time>
      </trkpt>
      <trkpt lat="50.540888" lon="6.201619">
        <ele>484.600000</ele>
        <time>2009-07-19T18:06:12Z</time>
      </trkpt>
      <trkpt lat="50.540942" lon="6.201632">
        <ele>484.200000</ele>
        <time>2009-07-19T18:06:18Z</time>
      </trkpt>
      <trkpt lat="50.541061" lon="6.201674">
        <ele>484.600000</ele>
        <time>2009-07-19T18:06:30Z</time>
      </trkpt>
      <trkpt lat="50.541205" lon="6.201890">
        <ele>485.600000</ele>
        <time>2009-07-19T18:06:50Z</time>
      </trkpt>
      <trkpt lat="50.541209" lon="6.201907">
        <ele>485.600000</ele>
        <time>2009-07-19T18:06:51Z</time>
      </trkpt>
      <trkpt lat="50.541228" lon="6.202062">
        <ele>485.100000</ele>
        <time>2009-07-19T18:07:01Z</time>
      </trkpt>
      <trkpt lat="50.541191" lon="6.202295">
        <ele>485.600000</ele>
        <time>2009-07-19T18:07:16Z</time>
      </trkpt>
      <trkpt lat="50.541158" lon="6.202518">
        <ele>485.100000</ele>
        <time>2009-07-19T18:07:31Z</time>
      </trkpt>
      <trkpt lat="50.541154" lon="6.202709">
        <ele>484.200000</ele>
        <time>2009-07-19T18:07:43Z</time>
      </trkpt>
      <trkpt lat="50.541035" lon="6.202912">
        <ele>486.600000</ele>
        <time>2009-07-19T18:08:00Z</time>
      </trkpt>
      <trkpt lat="50.541023" lon="6.202927">
        <ele>486.600000</ele>
        <time>2009-07-19T18:08:02Z</time>
      </trkpt>
      <trkpt lat="50.540802" lon="6.202940">
        <ele>486.100000</ele>
        <time>2009-07-19T18:08:24Z</time>
      </trkpt>
      <trkpt lat="50.540719" lon="6.202897">
        <ele>487.000000</ele>
        <time>2009-07-19T18:08:33Z</time>
      </trkpt>
      <trkpt lat="50.540614" lon="6.202837">
        <ele>487.500000</ele>
        <time>2009-07-19T18:08:44Z</time>
      </trkpt>
      <trkpt lat="50.540534" lon="6.202769">
        <ele>487.000000</ele>
        <time>2009-07-19T18:08:53Z</time>
      </trkpt>
      <trkpt lat="50.540459" lon="6.202721">
        <ele>487.500000</ele>
        <time>2009-07-19T18:09:01Z</time>
      </trkpt>
      <trkpt lat="50.540404" lon="6.202722">
        <ele>487.500000</ele>
        <time>2009-07-19T18:09:07Z</time>
      </trkpt>
      <trkpt lat="50.540099" lon="6.202820">
        <ele>488.500000</ele>
        <time>2009-07-19T18:09:38Z</time>
      </trkpt>
      <trkpt lat="50.540043" lon="6.202830">
        <ele>488.000000</ele>
        <time>2009-07-19T18:09:44Z</time>
      </trkpt>
      <trkpt lat="50.539838" lon="6.202914">
        <ele>489.000000</ele>
        <time>2009-07-19T18:10:05Z</time>
      </trkpt>
      <trkpt lat="50.539670" lon="6.202968">
        <ele>489.000000</ele>
        <time>2009-07-19T18:10:22Z</time>
      </trkpt>
      <trkpt lat="50.539522" lon="6.203018">
        <ele>490.400000</ele>
        <time>2009-07-19T18:10:37Z</time>
      </trkpt>
      <trkpt lat="50.539384" lon="6.203032">
        <ele>490.400000</ele>
        <time>2009-07-19T18:10:51Z</time>
      </trkpt>
      <trkpt lat="50.539218" lon="6.202999">
        <ele>491.400000</ele>
        <time>2009-07-19T18:11:08Z</time>
      </trkpt>
      <trkpt lat="50.539007" lon="6.202922">
        <ele>492.300000</ele>
        <time>2009-07-19T18:11:30Z</time>
      </trkpt>
      <trkpt lat="50.538896" lon="6.202805">
        <ele>492.300000</ele>
        <time>2009-07-19T18:11:43Z</time>
      </trkpt>
      <trkpt lat="50.538784" lon="6.202740">
        <ele>492.300000</ele>
        <time>2009-07-19T18:11:55Z</time>
      </trkpt>
      <trkpt lat="50.538770" lon="6.202733">
        <ele>492.800000</ele>
        <time>2009-07-19T18:11:56Z</time>
      </trkpt>
      <trkpt lat="50.538628" lon="6.202606">
        <ele>492.800000</ele>
        <time>2009-07-19T18:12:13Z</time>
      </trkpt>
      <trkpt lat="50.538476" lon="6.202442">
        <ele>493.300000</ele>
        <time>2009-07-19T18:12:31Z</time>
      </trkpt>
      <trkpt lat="50.538341" lon="6.202292">
        <ele>493.300000</ele>
        <time>2009-07-19T18:12:48Z</time>
      </trkpt>
      <trkpt lat="50.538210" lon="6.202080">
        <ele>493.300000</ele>
        <time>2009-07-19T18:13:07Z</time>
      </trkpt>
      <trkpt lat="50.538177" lon="6.202052">
        <ele>493.300000</ele>
        <time>2009-07-19T18:13:10Z</time>
      </trkpt>
      <trkpt lat="50.538151" lon="6.201935">
        <ele>492.800000</ele>
        <time>2009-07-19T18:13:18Z</time>
      </trkpt>
      <trkpt lat="50.538080" lon="6.201600">
        <ele>492.800000</ele>
        <time>2009-07-19T18:13:41Z</time>
      </trkpt>
      <trkpt lat="50.537982" lon="6.201289">
        <ele>492.800000</ele>
        <time>2009-07-19T18:14:03Z</time>
      </trkpt>
      <trkpt lat="50.537921" lon="6.201170">
        <ele>493.300000</ele>
        <time>2009-07-19T18:14:13Z</time>
      </trkpt>
      <trkpt lat="50.537861" lon="6.201084">
        <ele>493.300000</ele>
        <time>2009-07-19T18:14:21Z</time>
      </trkpt>
      <trkpt lat="50.537742" lon="6.200724">
        <ele>493.300000</ele>
        <time>2009-07-19T18:14:46Z</time>
      </trkpt>
      <trkpt lat="50.537645" lon="6.200431">
        <ele>493.300000</ele>
        <time>2009-07-19T18:15:08Z</time>
      </trkpt>
      <trkpt lat="50.537440" lon="6.200188">
        <ele>493.800000</ele>
        <time>2009-07-19T18:15:33Z</time>
      </trkpt>
      <trkpt lat="50.537172" lon="6.200133">
        <ele>494.300000</ele>
        <time>2009-07-19T18:16:00Z</time>
      </trkpt>
      <trkpt lat="50.536902" lon="6.200201">
        <ele>495.200000</ele>
        <time>2009-07-19T18:16:28Z</time>
      </trkpt>
      <trkpt lat="50.536688" lon="6.200234">
        <ele>496.200000</ele>
        <time>2009-07-19T18:16:49Z</time>
      </trkpt>
      <trkpt lat="50.536466" lon="6.200307">
        <ele>496.700000</ele>
        <time>2009-07-19T18:17:12Z</time>
      </trkpt>
      <trkpt lat="50.536232" lon="6.200424">
        <ele>497.100000</ele>
        <time>2009-07-19T18:17:37Z</time>
      </trkpt>
      <trkpt lat="50.536124" lon="6.200425">
        <ele>497.600000</ele>
        <time>2009-07-19T18:17:47Z</time>
      </trkpt>
      <trkpt lat="50.535961" lon="6.200533">
        <ele>499.100000</ele>
        <time>2009-07-19T18:18:05Z</time>
      </trkpt>
      <trkpt lat="50.535842" lon="6.200751">
        <ele>499.100000</ele>
        <time>2009-07-19T18:18:23Z</time>
      </trkpt>
      <trkpt lat="50.535709" lon="6.200893">
        <ele>500.000000</ele>
        <time>2009-07-19T18:18:39Z</time>
      </trkpt>
      <trkpt lat="50.535660" lon="6.200960">
        <ele>500.500000</ele>
        <time>2009-07-19T18:18:46Z</time>
      </trkpt>
      <trkpt lat="50.535627" lon="6.200953">
        <ele>501.000000</ele>
        <time>2009-07-19T18:18:49Z</time>
      </trkpt>
      <trkpt lat="50.535658" lon="6.200927">
        <ele>500.500000</ele>
        <time>2009-07-19T18:18:53Z</time>
      </trkpt>
      <trkpt lat="50.535646" lon="6.200930">
        <ele>500.500000</ele>
        <time>2009-07-19T18:18:54Z</time>
      </trkpt>
      <trkpt lat="50.535632" lon="6.200935">
        <ele>500.500000</ele>
        <time>2009-07-19T18:18:55Z</time>
      </trkpt>
      <trkpt lat="50.535647" lon="6.200937">
        <ele>502.400000</ele>
        <time>2009-07-19T18:18:57Z</time>
      </trkpt>
      <trkpt lat="50.535664" lon="6.200954">
        <ele>501.000000</ele>
        <time>2009-07-19T18:18:59Z</time>
      </trkpt>
      <trkpt lat="50.535615" lon="6.200955">
        <ele>500.500000</ele>
        <time>2009-07-19T18:19:04Z</time>
      </trkpt>
      <trkpt lat="50.535652" lon="6.200935">
        <ele>500.000000</ele>
        <time>2009-07-19T18:19:08Z</time>
      </trkpt>
      <trkpt lat="50.535665" lon="6.200942">
        <ele>500.000000</ele>
        <time>2009-07-19T18:19:09Z</time>
      </trkpt>
      <trkpt lat="50.535669" lon="6.200862">
        <ele>499.500000</ele>
        <time>2009-07-19T18:19:14Z</time>
      </trkpt>
      <trkpt lat="50.535695" lon="6.200770">
        <ele>498.600000</ele>
        <time>2009-07-19T18:19:21Z</time>
      </trkpt>
      <trkpt lat="50.535644" lon="6.200744">
        <ele>497.600000</ele>
        <time>2009-07-19T18:19:26Z</time>
      </trkpt>
      <trkpt lat="50.535478" lon="6.200725">
        <ele>497.600000</ele>
        <time>2009-07-19T18:19:43Z</time>
      </trkpt>
      <trkpt lat="50.535316" lon="6.200680">
        <ele>498.100000</ele>
        <time>2009-07-19T18:19:59Z</time>
      </trkpt>
      <trkpt lat="50.535124" lon="6.200621">
        <ele>498.100000</ele>
        <time>2009-07-19T18:20:19Z</time>
      </trkpt>
      <trkpt lat="50.534964" lon="6.200519">
        <ele>498.600000</ele>
        <time>2009-07-19T18:20:36Z</time>
      </trkpt>
      <trkpt lat="50.534828" lon="6.200420">
        <ele>498.600000</ele>
        <time>2009-07-19T18:20:51Z</time>
      </trkpt>
      <trkpt lat="50.534638" lon="6.200271">
        <ele>498.600000</ele>
        <time>2009-07-19T18:21:12Z</time>
      </trkpt>
      <trkpt lat="50.534488" lon="6.200121">
        <ele>499.100000</ele>
        <time>2009-07-19T18:21:30Z</time>
      </trkpt>
      <trkpt lat="50.534268" lon="6.199968">
        <ele>498.600000</ele>
        <time>2009-07-19T18:21:54Z</time>
      </trkpt>
      <trkpt lat="50.534087" lon="6.199803">
        <ele>499.100000</ele>
        <time>2009-07-19T18:22:15Z</time>
      </trkpt>
      <trkpt lat="50.533872" lon="6.199630">
        <ele>499.100000</ele>
        <time>2009-07-19T18:22:39Z</time>
      </trkpt>
      <trkpt lat="50.533635" lon="6.199468">
        <ele>499.500000</ele>
        <time>2009-07-19T18:23:05Z</time>
      </trkpt>
      <trkpt lat="50.533423" lon="6.199336">
        <ele>500.000000</ele>
        <time>2009-07-19T18:23:28Z</time>
      </trkpt>
      <trkpt lat="50.533211" lon="6.199211">
        <ele>500.000000</ele>
        <time>2009-07-19T18:23:51Z</time>
      </trkpt>
      <trkpt lat="50.533032" lon="6.199108">
        <ele>500.000000</ele>
        <time>2009-07-19T18:24:10Z</time>
      </trkpt>
      <trkpt lat="50.532837" lon="6.199060">
        <ele>500.500000</ele>
        <time>2009-07-19T18:24:30Z</time>
      </trkpt>
      <trkpt lat="50.532671" lon="6.198992">
        <ele>501.500000</ele>
        <time>2009-07-19T18:24:47Z</time>
      </trkpt>
      <trkpt lat="50.532517" lon="6.198976">
        <ele>501.900000</ele>
        <time>2009-07-19T18:25:02Z</time>
      </trkpt>
      <trkpt lat="50.532493" lon="6.198975">
        <ele>501.900000</ele>
        <time>2009-07-19T18:25:05Z</time>
      </trkpt>
      <trkpt lat="50.532299" lon="6.198959">
        <ele>501.900000</ele>
        <time>2009-07-19T18:25:24Z</time>
      </trkpt>
      <trkpt lat="50.532259" lon="6.198942">
        <ele>501.900000</ele>
        <time>2009-07-19T18:25:28Z</time>
      </trkpt>
      <trkpt lat="50.532109" lon="6.198899">
        <ele>501.900000</ele>
        <time>2009-07-19T18:25:44Z</time>
      </trkpt>
      <trkpt lat="50.531977" lon="6.198857">
        <ele>502.400000</ele>
        <time>2009-07-19T18:25:57Z</time>
      </trkpt>
      <trkpt lat="50.531802" lon="6.198856">
        <ele>502.400000</ele>
        <time>2009-07-19T18:26:15Z</time>
      </trkpt>
      <trkpt lat="50.531635" lon="6.198841">
        <ele>502.400000</ele>
        <time>2009-07-19T18:26:31Z</time>
      </trkpt>
      <trkpt lat="50.531486" lon="6.198831">
        <ele>502.900000</ele>
        <time>2009-07-19T18:26:46Z</time>
      </trkpt>
      <trkpt lat="50.531336" lon="6.198843">
        <ele>502.900000</ele>
        <time>2009-07-19T18:27:01Z</time>
      </trkpt>
      <trkpt lat="50.531177" lon="6.198837">
        <ele>503.400000</ele>
        <time>2009-07-19T18:27:17Z</time>
      </trkpt>
      <trkpt lat="50.531007" lon="6.198900">
        <ele>502.900000</ele>
        <time>2009-07-19T18:27:35Z</time>
      </trkpt>
      <trkpt lat="50.530921" lon="6.198908">
        <ele>503.400000</ele>
        <time>2009-07-19T18:27:43Z</time>
      </trkpt>
      <trkpt lat="50.530872" lon="6.198921">
        <ele>503.900000</ele>
        <time>2009-07-19T18:27:48Z</time>
      </trkpt>
      <trkpt lat="50.530694" lon="6.198959">
        <ele>504.300000</ele>
        <time>2009-07-19T18:28:06Z</time>
      </trkpt>
      <trkpt lat="50.530644" lon="6.198984">
        <ele>504.800000</ele>
        <time>2009-07-19T18:28:12Z</time>
      </trkpt>
      <trkpt lat="50.530596" lon="6.198990">
        <ele>503.900000</ele>
        <time>2009-07-19T18:28:17Z</time>
      </trkpt>
      <trkpt lat="50.530450" lon="6.199053">
        <ele>504.300000</ele>
        <time>2009-07-19T18:28:32Z</time>
      </trkpt>
      <trkpt lat="50.530290" lon="6.199097">
        <ele>504.800000</ele>
        <time>2009-07-19T18:28:48Z</time>
      </trkpt>
      <trkpt lat="50.530216" lon="6.199127">
        <ele>504.300000</ele>
        <time>2009-07-19T18:28:56Z</time>
      </trkpt>
      <trkpt lat="50.530159" lon="6.199152">
        <ele>504.300000</ele>
        <time>2009-07-19T18:29:02Z</time>
      </trkpt>
      <trkpt lat="50.529998" lon="6.199207">
        <ele>504.300000</ele>
        <time>2009-07-19T18:29:18Z</time>
      </trkpt>
      <trkpt lat="50.529789" lon="6.199277">
        <ele>504.800000</ele>
        <time>2009-07-19T18:29:39Z</time>
      </trkpt>
      <trkpt lat="50.529669" lon="6.199356">
        <ele>504.800000</ele>
        <time>2009-07-19T18:29:52Z</time>
      </trkpt>
      <trkpt lat="50.529496" lon="6.199449">
        <ele>505.300000</ele>
        <time>2009-07-19T18:30:11Z</time>
      </trkpt>
      <trkpt lat="50.529424" lon="6.199504">
        <ele>504.800000</ele>
        <time>2009-07-19T18:30:19Z</time>
      </trkpt>
      <trkpt lat="50.529246" lon="6.199683">
        <ele>505.300000</ele>
        <time>2009-07-19T18:30:40Z</time>
      </trkpt>
      <trkpt lat="50.529105" lon="6.199806">
        <ele>505.300000</ele>
        <time>2009-07-19T18:30:56Z</time>
      </trkpt>
      <trkpt lat="50.528965" lon="6.200109">
        <ele>505.300000</ele>
        <time>2009-07-19T18:31:20Z</time>
      </trkpt>
      <trkpt lat="50.528835" lon="6.200405">
        <ele>505.800000</ele>
        <time>2009-07-19T18:31:43Z</time>
      </trkpt>
      <trkpt lat="50.528735" lon="6.200768">
        <ele>505.800000</ele>
        <time>2009-07-19T18:32:08Z</time>
      </trkpt>
      <trkpt lat="50.528708" lon="6.201054">
        <ele>506.300000</ele>
        <time>2009-07-19T18:32:27Z</time>
      </trkpt>
      <trkpt lat="50.528671" lon="6.201386">
        <ele>506.300000</ele>
        <time>2009-07-19T18:32:48Z</time>
      </trkpt>
      <trkpt lat="50.528631" lon="6.201684">
        <ele>507.200000</ele>
        <time>2009-07-19T18:33:07Z</time>
      </trkpt>
      <trkpt lat="50.528586" lon="6.201972">
        <ele>507.200000</ele>
        <time>2009-07-19T18:33:26Z</time>
      </trkpt>
      <trkpt lat="50.528479" lon="6.202244">
        <ele>507.700000</ele>
        <time>2009-07-19T18:33:47Z</time>
      </trkpt>
      <trkpt lat="50.528431" lon="6.202360">
        <ele>507.700000</ele>
        <time>2009-07-19T18:33:55Z</time>
      </trkpt>
      <trkpt lat="50.528407" lon="6.202428">
        <ele>507.700000</ele>
        <time>2009-07-19T18:34:00Z</time>
      </trkpt>
      <trkpt lat="50.528265" lon="6.202642">
        <ele>507.700000</ele>
        <time>2009-07-19T18:34:20Z</time>
      </trkpt>
      <trkpt lat="50.528227" lon="6.202695">
        <ele>507.700000</ele>
        <time>2009-07-19T18:34:25Z</time>
      </trkpt>
      <trkpt lat="50.528043" lon="6.202840">
        <ele>507.700000</ele>
        <time>2009-07-19T18:34:46Z</time>
      </trkpt>
      <trkpt lat="50.528032" lon="6.202848">
        <ele>507.200000</ele>
        <time>2009-07-19T18:34:47Z</time>
      </trkpt>
      <trkpt lat="50.527957" lon="6.202849">
        <ele>507.200000</ele>
        <time>2009-07-19T18:34:54Z</time>
      </trkpt>
      <trkpt lat="50.527809" lon="6.202863">
        <ele>507.700000</ele>
        <time>2009-07-19T18:35:09Z</time>
      </trkpt>
      <trkpt lat="50.527705" lon="6.202865">
        <ele>507.700000</ele>
        <time>2009-07-19T18:35:20Z</time>
      </trkpt>
      <trkpt lat="50.527548" lon="6.202920">
        <ele>508.200000</ele>
        <time>2009-07-19T18:35:36Z</time>
      </trkpt>
      <trkpt lat="50.527535" lon="6.202927">
        <ele>507.700000</ele>
        <time>2009-07-19T18:35:37Z</time>
      </trkpt>
      <trkpt lat="50.527423" lon="6.202984">
        <ele>507.700000</ele>
        <time>2009-07-19T18:35:49Z</time>
      </trkpt>
      <trkpt lat="50.527279" lon="6.203088">
        <ele>507.200000</ele>
        <time>2009-07-19T18:36:05Z</time>
      </trkpt>
      <trkpt lat="50.527249" lon="6.203116">
        <ele>506.800000</ele>
        <time>2009-07-19T18:36:08Z</time>
      </trkpt>
      <trkpt lat="50.527112" lon="6.203207">
        <ele>506.800000</ele>
        <time>2009-07-19T18:36:23Z</time>
      </trkpt>
      <trkpt lat="50.526979" lon="6.203263">
        <ele>507.700000</ele>
        <time>2009-07-19T18:36:37Z</time>
      </trkpt>
      <trkpt lat="50.526788" lon="6.203317">
        <ele>507.700000</ele>
        <time>2009-07-19T18:36:57Z</time>
      </trkpt>
      <trkpt lat="50.526634" lon="6.203357">
        <ele>507.200000</ele>
        <time>2009-07-19T18:37:12Z</time>
      </trkpt>
      <trkpt lat="50.526487" lon="6.203393">
        <ele>507.700000</ele>
        <time>2009-07-19T18:37:27Z</time>
      </trkpt>
      <trkpt lat="50.526456" lon="6.203395">
        <ele>507.700000</ele>
        <time>2009-07-19T18:37:30Z</time>
      </trkpt>
      <trkpt lat="50.526287" lon="6.203464">
        <ele>508.200000</ele>
        <time>2009-07-19T18:37:48Z</time>
      </trkpt>
      <trkpt lat="50.526225" lon="6.203562">
        <ele>508.700000</ele>
        <time>2009-07-19T18:37:56Z</time>
      </trkpt>
      <trkpt lat="50.526134" lon="6.203757">
        <ele>508.700000</ele>
        <time>2009-07-19T18:38:12Z</time>
      </trkpt>
      <trkpt lat="50.526021" lon="6.203948">
        <ele>508.700000</ele>
        <time>2009-07-19T18:38:28Z</time>
      </trkpt>
      <trkpt lat="50.525946" lon="6.204061">
        <ele>508.700000</ele>
        <time>2009-07-19T18:38:39Z</time>
      </trkpt>
      <trkpt lat="50.525788" lon="6.204237">
        <ele>508.700000</ele>
        <time>2009-07-19T18:38:58Z</time>
      </trkpt>
      <trkpt lat="50.525691" lon="6.204396">
        <ele>508.700000</ele>
        <time>2009-07-19T18:39:12Z</time>
      </trkpt>
      <trkpt lat="50.525544" lon="6.204620">
        <ele>508.200000</ele>
        <time>2009-07-19T18:39:33Z</time>
      </trkpt>
      <trkpt lat="50.525492" lon="6.204694">
        <ele>508.700000</ele>
        <time>2009-07-19T18:39:40Z</time>
      </trkpt>
      <trkpt lat="50.525342" lon="6.204859">
        <ele>509.200000</ele>
        <time>2009-07-19T18:39:58Z</time>
      </trkpt>
      <trkpt lat="50.525297" lon="6.204922">
        <ele>508.200000</ele>
        <time>2009-07-19T18:40:04Z</time>
      </trkpt>
      <trkpt lat="50.525186" lon="6.205075">
        <ele>509.200000</ele>
        <time>2009-07-19T18:40:19Z</time>
      </trkpt>
      <trkpt lat="50.525074" lon="6.205183">
        <ele>508.700000</ele>
        <time>2009-07-19T18:40:32Z</time>
      </trkpt>
      <trkpt lat="50.524932" lon="6.205356">
        <ele>509.200000</ele>
        <time>2009-07-19T18:40:50Z</time>
      </trkpt>
      <trkpt lat="50.524883" lon="6.205398">
        <ele>508.200000</ele>
        <time>2009-07-19T18:40:56Z</time>
      </trkpt>
      <trkpt lat="50.524825" lon="6.205513">
        <ele>508.700000</ele>
        <time>2009-07-19T18:41:05Z</time>
      </trkpt>
      <trkpt lat="50.524688" lon="6.205677">
        <ele>508.700000</ele>
        <time>2009-07-19T18:41:22Z</time>
      </trkpt>
      <trkpt lat="50.524676" lon="6.205691">
        <ele>509.200000</ele>
        <time>2009-07-19T18:41:24Z</time>
      </trkpt>
      <trkpt lat="50.524630" lon="6.205742">
        <ele>509.600000</ele>
        <time>2009-07-19T18:41:29Z</time>
      </trkpt>
      <trkpt lat="50.524519" lon="6.206025">
        <ele>508.700000</ele>
        <time>2009-07-19T18:41:51Z</time>
      </trkpt>
      <trkpt lat="50.524446" lon="6.206304">
        <ele>509.600000</ele>
        <time>2009-07-19T18:42:10Z</time>
      </trkpt>
      <trkpt lat="50.524438" lon="6.206677">
        <ele>510.600000</ele>
        <time>2009-07-19T18:42:34Z</time>
      </trkpt>
      <trkpt lat="50.524430" lon="6.206956">
        <ele>511.100000</ele>
        <time>2009-07-19T18:42:51Z</time>
      </trkpt>
      <trkpt lat="50.524475" lon="6.207203">
        <ele>511.600000</ele>
        <time>2009-07-19T18:43:08Z</time>
      </trkpt>
      <trkpt lat="50.524497" lon="6.207330">
        <ele>512.000000</ele>
        <time>2009-07-19T18:43:16Z</time>
      </trkpt>
      <trkpt lat="50.524518" lon="6.207369">
        <ele>512.000000</ele>
        <time>2009-07-19T18:43:19Z</time>
      </trkpt>
      <trkpt lat="50.524556" lon="6.207448">
        <ele>512.000000</ele>
        <time>2009-07-19T18:43:26Z</time>
      </trkpt>
      <trkpt lat="50.524655" lon="6.207709">
        <ele>512.500000</ele>
        <time>2009-07-19T18:43:45Z</time>
      </trkpt>
      <trkpt lat="50.524722" lon="6.207934">
        <ele>513.000000</ele>
        <time>2009-07-19T18:44:01Z</time>
      </trkpt>
      <trkpt lat="50.524730" lon="6.208191">
        <ele>513.500000</ele>
        <time>2009-07-19T18:44:17Z</time>
      </trkpt>
      <trkpt lat="50.524754" lon="6.208489">
        <ele>514.400000</ele>
        <time>2009-07-19T18:44:36Z</time>
      </trkpt>
      <trkpt lat="50.524742" lon="6.208686">
        <ele>514.900000</ele>
        <time>2009-07-19T18:44:49Z</time>
      </trkpt>
      <trkpt lat="50.524629" lon="6.209066">
        <ele>515.900000</ele>
        <time>2009-07-19T18:45:16Z</time>
      </trkpt>
      <trkpt lat="50.524517" lon="6.209301">
        <ele>516.800000</ele>
        <time>2009-07-19T18:45:34Z</time>
      </trkpt>
      <trkpt lat="50.524399" lon="6.209582">
        <ele>517.800000</ele>
        <time>2009-07-19T18:45:56Z</time>
      </trkpt>
      <trkpt lat="50.524250" lon="6.209890">
        <ele>517.800000</ele>
        <time>2009-07-19T18:46:20Z</time>
      </trkpt>
      <trkpt lat="50.524133" lon="6.210131">
        <ele>518.800000</ele>
        <time>2009-07-19T18:46:40Z</time>
      </trkpt>
      <trkpt lat="50.523958" lon="6.210348">
        <ele>519.200000</ele>
        <time>2009-07-19T18:47:02Z</time>
      </trkpt>
      <trkpt lat="50.523764" lon="6.210517">
        <ele>520.200000</ele>
        <time>2009-07-19T18:47:24Z</time>
      </trkpt>
      <trkpt lat="50.523637" lon="6.210567">
        <ele>519.700000</ele>
        <time>2009-07-19T18:47:37Z</time>
      </trkpt>
      <trkpt lat="50.523447" lon="6.210609">
        <ele>520.700000</ele>
        <time>2009-07-19T18:47:57Z</time>
      </trkpt>
      <trkpt lat="50.523296" lon="6.210645">
        <ele>520.700000</ele>
        <time>2009-07-19T18:48:12Z</time>
      </trkpt>
      <trkpt lat="50.523121" lon="6.210799">
        <ele>522.100000</ele>
        <time>2009-07-19T18:48:32Z</time>
      </trkpt>
      <trkpt lat="50.523061" lon="6.211001">
        <ele>522.600000</ele>
        <time>2009-07-19T18:48:46Z</time>
      </trkpt>
      <trkpt lat="50.523107" lon="6.211278">
        <ele>523.600000</ele>
        <time>2009-07-19T18:49:05Z</time>
      </trkpt>
      <trkpt lat="50.523190" lon="6.211534">
        <ele>526.000000</ele>
        <time>2009-07-19T18:49:23Z</time>
      </trkpt>
      <trkpt lat="50.523227" lon="6.211661">
        <ele>526.500000</ele>
        <time>2009-07-19T18:49:32Z</time>
      </trkpt>
      <trkpt lat="50.523293" lon="6.211734">
        <ele>526.500000</ele>
        <time>2009-07-19T18:49:40Z</time>
      </trkpt>
      <trkpt lat="50.523329" lon="6.211814">
        <ele>526.500000</ele>
        <time>2009-07-19T18:49:46Z</time>
      </trkpt>
      <trkpt lat="50.523396" lon="6.211943">
        <ele>526.900000</ele>
        <time>2009-07-19T18:49:57Z</time>
      </trkpt>
      <trkpt lat="50.523500" lon="6.212136">
        <ele>528.900000</ele>
        <time>2009-07-19T18:50:13Z</time>
      </trkpt>
      <trkpt lat="50.523606" lon="6.212269">
        <ele>529.300000</ele>
        <time>2009-07-19T18:50:26Z</time>
      </trkpt>
      <trkpt lat="50.523735" lon="6.212483">
        <ele>530.300000</ele>
        <time>2009-07-19T18:50:45Z</time>
      </trkpt>
      <trkpt lat="50.523863" lon="6.212679">
        <ele>531.700000</ele>
        <time>2009-07-19T18:51:03Z</time>
      </trkpt>
      <trkpt lat="50.523963" lon="6.212906">
        <ele>533.200000</ele>
        <time>2009-07-19T18:51:21Z</time>
      </trkpt>
      <trkpt lat="50.524023" lon="6.213078">
        <ele>535.100000</ele>
        <time>2009-07-19T18:51:33Z</time>
      </trkpt>
      <trkpt lat="50.524068" lon="6.213215">
        <ele>536.600000</ele>
        <time>2009-07-19T18:51:43Z</time>
      </trkpt>
      <trkpt lat="50.524136" lon="6.213402">
        <ele>538.500000</ele>
        <time>2009-07-19T18:51:57Z</time>
      </trkpt>
      <trkpt lat="50.524199" lon="6.213555">
        <ele>539.900000</ele>
        <time>2009-07-19T18:52:08Z</time>
      </trkpt>
      <trkpt lat="50.524222" lon="6.213651">
        <ele>540.900000</ele>
        <time>2009-07-19T18:52:15Z</time>
      </trkpt>
      <trkpt lat="50.524290" lon="6.213847">
        <ele>541.800000</ele>
        <time>2009-07-19T18:52:29Z</time>
      </trkpt>
      <trkpt lat="50.524310" lon="6.214054">
        <ele>543.300000</ele>
        <time>2009-07-19T18:52:42Z</time>
      </trkpt>
      <trkpt lat="50.524369" lon="6.214263">
        <ele>545.200000</ele>
        <time>2009-07-19T18:52:57Z</time>
      </trkpt>
      <trkpt lat="50.524434" lon="6.214477">
        <ele>546.600000</ele>
        <time>2009-07-19T18:53:12Z</time>
      </trkpt>
      <trkpt lat="50.524512" lon="6.214707">
        <ele>547.600000</ele>
        <time>2009-07-19T18:53:29Z</time>
      </trkpt>
      <trkpt lat="50.524568" lon="6.214837">
        <ele>548.600000</ele>
        <time>2009-07-19T18:53:39Z</time>
      </trkpt>
      <trkpt lat="50.524650" lon="6.214995">
        <ele>549.100000</ele>
        <time>2009-07-19T18:53:52Z</time>
      </trkpt>
      <trkpt lat="50.524756" lon="6.215174">
        <ele>550.000000</ele>
        <time>2009-07-19T18:54:07Z</time>
      </trkpt>
      <trkpt lat="50.524859" lon="6.215400">
        <ele>551.000000</ele>
        <time>2009-07-19T18:54:25Z</time>
      </trkpt>
      <trkpt lat="50.524974" lon="6.215629">
        <ele>551.500000</ele>
        <time>2009-07-19T18:54:43Z</time>
      </trkpt>
      <trkpt lat="50.525014" lon="6.215831">
        <ele>552.400000</ele>
        <time>2009-07-19T18:54:57Z</time>
      </trkpt>
      <trkpt lat="50.525132" lon="6.216138">
        <ele>553.400000</ele>
        <time>2009-07-19T18:55:20Z</time>
      </trkpt>
      <trkpt lat="50.525276" lon="6.216478">
        <ele>553.900000</ele>
        <time>2009-07-19T18:55:46Z</time>
      </trkpt>
      <trkpt lat="50.525391" lon="6.216771">
        <ele>554.300000</ele>
        <time>2009-07-19T18:56:08Z</time>
      </trkpt>
      <trkpt lat="50.525497" lon="6.217150">
        <ele>555.300000</ele>
        <time>2009-07-19T18:56:34Z</time>
      </trkpt>
      <trkpt lat="50.525561" lon="6.217388">
        <ele>556.300000</ele>
        <time>2009-07-19T18:56:51Z</time>
      </trkpt>
      <trkpt lat="50.525652" lon="6.217642">
        <ele>558.200000</ele>
        <time>2009-07-19T18:57:09Z</time>
      </trkpt>
      <trkpt lat="50.525659" lon="6.217683">
        <ele>558.700000</ele>
        <time>2009-07-19T18:57:12Z</time>
      </trkpt>
      <trkpt lat="50.525690" lon="6.217795">
        <ele>559.100000</ele>
        <time>2009-07-19T18:57:20Z</time>
      </trkpt>
      <trkpt lat="50.525526" lon="6.217932">
        <ele>559.100000</ele>
        <time>2009-07-19T18:57:38Z</time>
      </trkpt>
      <trkpt lat="50.525303" lon="6.218179">
        <ele>559.100000</ele>
        <time>2009-07-19T18:58:06Z</time>
      </trkpt>
      <trkpt lat="50.525006" lon="6.218515">
        <ele>561.500000</ele>
        <time>2009-07-19T18:58:42Z</time>
      </trkpt>
      <trkpt lat="50.524745" lon="6.218823">
        <ele>562.500000</ele>
        <time>2009-07-19T18:59:15Z</time>
      </trkpt>
      <trkpt lat="50.524571" lon="6.219055">
        <ele>562.500000</ele>
        <time>2009-07-19T18:59:38Z</time>
      </trkpt>
      <trkpt lat="50.524321" lon="6.219284">
        <ele>563.500000</ele>
        <time>2009-07-19T19:00:07Z</time>
      </trkpt>
      <trkpt lat="50.524060" lon="6.219424">
        <ele>565.900000</ele>
        <time>2009-07-19T19:00:34Z</time>
      </trkpt>
      <trkpt lat="50.523814" lon="6.219412">
        <ele>565.900000</ele>
        <time>2009-07-19T19:00:59Z</time>
      </trkpt>
      <trkpt lat="50.523523" lon="6.219471">
        <ele>565.900000</ele>
        <time>2009-07-19T19:01:28Z</time>
      </trkpt>
      <trkpt lat="50.523270" lon="6.219532">
        <ele>565.900000</ele>
        <time>2009-07-19T19:01:54Z</time>
      </trkpt>
      <trkpt lat="50.523166" lon="6.219585">
        <ele>566.800000</ele>
        <time>2009-07-19T19:02:05Z</time>
      </trkpt>
      <trkpt lat="50.523089" lon="6.219643">
        <ele>566.400000</ele>
        <time>2009-07-19T19:02:14Z</time>
      </trkpt>
      <trkpt lat="50.522951" lon="6.219668">
        <ele>566.400000</ele>
        <time>2009-07-19T19:02:27Z</time>
      </trkpt>
      <trkpt lat="50.522694" lon="6.219769">
        <ele>566.400000</ele>
        <time>2009-07-19T19:02:54Z</time>
      </trkpt>
      <trkpt lat="50.522458" lon="6.219881">
        <ele>565.900000</ele>
        <time>2009-07-19T19:03:19Z</time>
      </trkpt>
      <trkpt lat="50.522210" lon="6.220021">
        <ele>564.900000</ele>
        <time>2009-07-19T19:03:45Z</time>
      </trkpt>
      <trkpt lat="50.522039" lon="6.220133">
        <ele>565.400000</ele>
        <time>2009-07-19T19:04:04Z</time>
      </trkpt>
      <trkpt lat="50.521830" lon="6.220251">
        <ele>564.900000</ele>
        <time>2009-07-19T19:04:26Z</time>
      </trkpt>
      <trkpt lat="50.521611" lon="6.220360">
        <ele>564.900000</ele>
        <time>2009-07-19T19:04:49Z</time>
      </trkpt>
      <trkpt lat="50.521442" lon="6.220385">
        <ele>564.900000</ele>
        <time>2009-07-19T19:05:06Z</time>
      </trkpt>
      <trkpt lat="50.521220" lon="6.220334">
        <ele>566.400000</ele>
        <time>2009-07-19T19:05:28Z</time>
      </trkpt>
      <trkpt lat="50.521148" lon="6.220292">
        <ele>564.000000</ele>
        <time>2009-07-19T19:05:36Z</time>
      </trkpt>
      <trkpt lat="50.521143" lon="6.220298">
        <ele>565.900000</ele>
        <time>2009-07-19T19:05:37Z</time>
      </trkpt>
      <trkpt lat="50.521136" lon="6.220294">
        <ele>566.400000</ele>
        <time>2009-07-19T19:05:37Z</time>
      </trkpt>
      <trkpt lat="50.521135" lon="6.220284">
        <ele>565.400000</ele>
        <time>2009-07-19T19:05:38Z</time>
      </trkpt>
      <trkpt lat="50.521127" lon="6.220261">
        <ele>565.900000</ele>
        <time>2009-07-19T19:05:40Z</time>
      </trkpt>
      <trkpt lat="50.521119" lon="6.220155">
        <ele>564.900000</ele>
        <time>2009-07-19T19:05:47Z</time>
      </trkpt>
      <trkpt lat="50.521129" lon="6.220092">
        <ele>565.400000</ele>
        <time>2009-07-19T19:05:51Z</time>
      </trkpt>
      <trkpt lat="50.521100" lon="6.219892">
        <ele>564.000000</ele>
        <time>2009-07-19T19:06:04Z</time>
      </trkpt>
      <trkpt lat="50.521043" lon="6.219756">
        <ele>563.000000</ele>
        <time>2009-07-19T19:06:14Z</time>
      </trkpt>
      <trkpt lat="50.521031" lon="6.219708">
        <ele>563.000000</ele>
        <time>2009-07-19T19:06:17Z</time>
      </trkpt>
      <trkpt lat="50.520980" lon="6.219385">
        <ele>561.500000</ele>
        <time>2009-07-19T19:06:39Z</time>
      </trkpt>
      <trkpt lat="50.520971" lon="6.219339">
        <ele>561.500000</ele>
        <time>2009-07-19T19:06:42Z</time>
      </trkpt>
      <trkpt lat="50.520883" lon="6.219038">
        <ele>561.100000</ele>
        <time>2009-07-19T19:07:03Z</time>
      </trkpt>
      <trkpt lat="50.520881" lon="6.218996">
        <ele>561.100000</ele>
        <time>2009-07-19T19:07:05Z</time>
      </trkpt>
    </trkseg>
  </trk>

</gpx>
